<?xml version="1.0" encoding="UTF-8" standalone="no" ?>
<gpx xmlns="http://www.topografix.com/GPX/1/1" xmlns:xsi="http://www.w3.org/2001/XMLSchema-instance" xsi:schemaLocation="http://www.topografix.com/GPX/1/1 http://www.topografix.com/GPX/1/1/gpx.xsd" version="1.1" creator="VisuGPX - https://www.visugpx.com">
  <metadata>
    <name>secteur Saverne - Dabo - Petite Pierre</name>
  </metadata>
  <trk>
    <name><![CDATA[secteur Saverne - Dabo - Petite Pierre_2]]></name>
    <trkseg>
      <trkpt lat="48.65809" lon="7.21055">
        <ele>396.1</ele>
        <time>2020-08-27T12:33:53Z</time>
      </trkpt>
      <trkpt lat="48.65809" lon="7.21055">
        <ele>396.1</ele>
        <time>2020-08-27T12:33:53Z</time>
      </trkpt>
      <trkpt lat="48.65809" lon="7.21055">
        <ele>396.1</ele>
        <time>2020-08-27T12:33:53Z</time>
      </trkpt>
      <trkpt lat="48.65809" lon="7.21055">
        <ele>396.1</ele>
        <time>2020-08-27T12:33:53Z</time>
      </trkpt>
      <trkpt lat="48.65809" lon="7.21055">
        <ele>396.1</ele>
        <time>2020-08-27T12:33:53Z</time>
      </trkpt>
      <trkpt lat="48.65809" lon="7.21055">
        <ele>396.1</ele>
        <time>2020-08-27T12:33:53Z</time>
      </trkpt>
      <trkpt lat="48.65809" lon="7.21055">
        <ele>396.1</ele>
        <time>2020-08-27T12:33:53Z</time>
      </trkpt>
      <trkpt lat="48.65809" lon="7.21055">
        <ele>396.1</ele>
        <time>2020-08-27T12:33:53Z</time>
      </trkpt>
      <trkpt lat="48.65806" lon="7.21044">
        <ele>395.7</ele>
        <time>2020-08-27T12:33:56Z</time>
      </trkpt>
      <trkpt lat="48.65803" lon="7.21032">
        <ele>395.1</ele>
        <time>2020-08-27T12:34:00Z</time>
      </trkpt>
      <trkpt lat="48.658" lon="7.2102">
        <ele>395</ele>
        <time>2020-08-27T12:34:01Z</time>
      </trkpt>
      <trkpt lat="48.65798" lon="7.21012">
        <ele>394.6</ele>
        <time>2020-08-27T12:34:03Z</time>
      </trkpt>
      <trkpt lat="48.65796" lon="7.21004">
        <ele>394.5</ele>
        <time>2020-08-27T12:34:05Z</time>
      </trkpt>
      <trkpt lat="48.65795" lon="7.20996">
        <ele>394.8</ele>
        <time>2020-08-27T12:34:08Z</time>
      </trkpt>
      <trkpt lat="48.65792" lon="7.2099">
        <ele>394.9</ele>
        <time>2020-08-27T12:34:10Z</time>
      </trkpt>
      <trkpt lat="48.65788" lon="7.20983">
        <ele>395.3</ele>
        <time>2020-08-27T12:34:12Z</time>
      </trkpt>
      <trkpt lat="48.65779" lon="7.20971">
        <ele>395</ele>
        <time>2020-08-27T12:34:15Z</time>
      </trkpt>
      <trkpt lat="48.65774" lon="7.20963">
        <ele>394.4</ele>
        <time>2020-08-27T12:34:17Z</time>
      </trkpt>
      <trkpt lat="48.65769" lon="7.20954">
        <ele>394.1</ele>
        <time>2020-08-27T12:34:19Z</time>
      </trkpt>
      <trkpt lat="48.65761" lon="7.20943">
        <ele>393.4</ele>
        <time>2020-08-27T12:34:22Z</time>
      </trkpt>
      <trkpt lat="48.65754" lon="7.20929">
        <ele>392.6</ele>
        <time>2020-08-27T12:34:25Z</time>
      </trkpt>
      <trkpt lat="48.65753" lon="7.20916">
        <ele>391.7</ele>
        <time>2020-08-27T12:34:28Z</time>
      </trkpt>
      <trkpt lat="48.65751" lon="7.20904">
        <ele>390.6</ele>
        <time>2020-08-27T12:34:31Z</time>
      </trkpt>
      <trkpt lat="48.65748" lon="7.2089">
        <ele>389.6</ele>
        <time>2020-08-27T12:34:34Z</time>
      </trkpt>
      <trkpt lat="48.65745" lon="7.2087">
        <ele>388</ele>
        <time>2020-08-27T12:34:37Z</time>
      </trkpt>
      <trkpt lat="48.65739" lon="7.20852">
        <ele>388</ele>
        <time>2020-08-27T12:34:40Z</time>
      </trkpt>
      <trkpt lat="48.65735" lon="7.20837">
        <ele>386.2</ele>
        <time>2020-08-27T12:34:43Z</time>
      </trkpt>
      <trkpt lat="48.65736" lon="7.20825">
        <ele>384.9</ele>
        <time>2020-08-27T12:34:45Z</time>
      </trkpt>
      <trkpt lat="48.65737" lon="7.20807">
        <ele>383.1</ele>
        <time>2020-08-27T12:34:47Z</time>
      </trkpt>
      <trkpt lat="48.65737" lon="7.20799">
        <ele>383</ele>
        <time>2020-08-27T12:34:49Z</time>
      </trkpt>
      <trkpt lat="48.65736" lon="7.20788">
        <ele>382.3</ele>
        <time>2020-08-27T12:34:52Z</time>
      </trkpt>
      <trkpt lat="48.65734" lon="7.20778">
        <ele>381.8</ele>
        <time>2020-08-27T12:34:55Z</time>
      </trkpt>
      <trkpt lat="48.65734" lon="7.2077">
        <ele>382.7</ele>
        <time>2020-08-27T12:34:58Z</time>
      </trkpt>
      <trkpt lat="48.65732" lon="7.20759">
        <ele>384.1</ele>
        <time>2020-08-27T12:35:00Z</time>
      </trkpt>
      <trkpt lat="48.6573" lon="7.20746">
        <ele>384.1</ele>
        <time>2020-08-27T12:35:03Z</time>
      </trkpt>
      <trkpt lat="48.65727" lon="7.2073">
        <ele>383.9</ele>
        <time>2020-08-27T12:35:04Z</time>
      </trkpt>
      <trkpt lat="48.65724" lon="7.20714">
        <ele>384.3</ele>
        <time>2020-08-27T12:35:06Z</time>
      </trkpt>
      <trkpt lat="48.65721" lon="7.207">
        <ele>384</ele>
        <time>2020-08-27T12:35:08Z</time>
      </trkpt>
      <trkpt lat="48.65719" lon="7.20687">
        <ele>383.4</ele>
        <time>2020-08-27T12:35:10Z</time>
      </trkpt>
      <trkpt lat="48.65717" lon="7.20674">
        <ele>382.4</ele>
        <time>2020-08-27T12:35:12Z</time>
      </trkpt>
      <trkpt lat="48.65715" lon="7.20659">
        <ele>381.6</ele>
        <time>2020-08-27T12:35:14Z</time>
      </trkpt>
      <trkpt lat="48.65713" lon="7.20643">
        <ele>381</ele>
        <time>2020-08-27T12:35:17Z</time>
      </trkpt>
      <trkpt lat="48.65711" lon="7.20624">
        <ele>379</ele>
        <time>2020-08-27T12:35:19Z</time>
      </trkpt>
      <trkpt lat="48.65709" lon="7.20611">
        <ele>378</ele>
        <time>2020-08-27T12:35:21Z</time>
      </trkpt>
      <trkpt lat="48.65704" lon="7.206">
        <ele>376.2</ele>
        <time>2020-08-27T12:35:23Z</time>
      </trkpt>
      <trkpt lat="48.65701" lon="7.20591">
        <ele>375.3</ele>
        <time>2020-08-27T12:35:25Z</time>
      </trkpt>
      <trkpt lat="48.657" lon="7.20579">
        <ele>374</ele>
        <time>2020-08-27T12:35:27Z</time>
      </trkpt>
      <trkpt lat="48.65698" lon="7.20569">
        <ele>372.9</ele>
        <time>2020-08-27T12:35:29Z</time>
      </trkpt>
      <trkpt lat="48.65697" lon="7.2056">
        <ele>371.8</ele>
        <time>2020-08-27T12:35:31Z</time>
      </trkpt>
      <trkpt lat="48.65696" lon="7.20551">
        <ele>370.5</ele>
        <time>2020-08-27T12:35:33Z</time>
      </trkpt>
      <trkpt lat="48.65695" lon="7.20542">
        <ele>369.3</ele>
        <time>2020-08-27T12:35:35Z</time>
      </trkpt>
      <trkpt lat="48.65694" lon="7.2053">
        <ele>367.8</ele>
        <time>2020-08-27T12:35:37Z</time>
      </trkpt>
      <trkpt lat="48.65693" lon="7.20519">
        <ele>366.6</ele>
        <time>2020-08-27T12:35:39Z</time>
      </trkpt>
      <trkpt lat="48.65693" lon="7.20507">
        <ele>366.3</ele>
        <time>2020-08-27T12:35:42Z</time>
      </trkpt>
      <trkpt lat="48.65693" lon="7.20496">
        <ele>365.6</ele>
        <time>2020-08-27T12:35:44Z</time>
      </trkpt>
      <trkpt lat="48.65694" lon="7.20485">
        <ele>365</ele>
        <time>2020-08-27T12:35:46Z</time>
      </trkpt>
      <trkpt lat="48.65694" lon="7.20474">
        <ele>364.4</ele>
        <time>2020-08-27T12:35:47Z</time>
      </trkpt>
      <trkpt lat="48.65695" lon="7.20456">
        <ele>362.8</ele>
        <time>2020-08-27T12:35:50Z</time>
      </trkpt>
      <trkpt lat="48.65697" lon="7.20444">
        <ele>362.4</ele>
        <time>2020-08-27T12:35:52Z</time>
      </trkpt>
      <trkpt lat="48.65699" lon="7.20433">
        <ele>362.3</ele>
        <time>2020-08-27T12:35:54Z</time>
      </trkpt>
      <trkpt lat="48.65699" lon="7.20425">
        <ele>362.5</ele>
        <time>2020-08-27T12:35:56Z</time>
      </trkpt>
      <trkpt lat="48.65702" lon="7.20412">
        <ele>362.4</ele>
        <time>2020-08-27T12:35:58Z</time>
      </trkpt>
      <trkpt lat="48.65703" lon="7.20396">
        <ele>362.1</ele>
        <time>2020-08-27T12:36:00Z</time>
      </trkpt>
      <trkpt lat="48.65707" lon="7.20383">
        <ele>361.1</ele>
        <time>2020-08-27T12:36:02Z</time>
      </trkpt>
      <trkpt lat="48.65709" lon="7.20371">
        <ele>360.2</ele>
        <time>2020-08-27T12:36:05Z</time>
      </trkpt>
      <trkpt lat="48.65712" lon="7.20361">
        <ele>359.2</ele>
        <time>2020-08-27T12:36:07Z</time>
      </trkpt>
      <trkpt lat="48.65714" lon="7.20354">
        <ele>359.1</ele>
        <time>2020-08-27T12:36:09Z</time>
      </trkpt>
      <trkpt lat="48.65715" lon="7.20342">
        <ele>358.3</ele>
        <time>2020-08-27T12:36:12Z</time>
      </trkpt>
      <trkpt lat="48.65721" lon="7.2032">
        <ele>356.9</ele>
        <time>2020-08-27T12:36:15Z</time>
      </trkpt>
      <trkpt lat="48.65726" lon="7.203">
        <ele>355.7</ele>
        <time>2020-08-27T12:36:17Z</time>
      </trkpt>
      <trkpt lat="48.65728" lon="7.20286">
        <ele>354.1</ele>
        <time>2020-08-27T12:36:19Z</time>
      </trkpt>
      <trkpt lat="48.65732" lon="7.2027">
        <ele>352.2</ele>
        <time>2020-08-27T12:36:22Z</time>
      </trkpt>
      <trkpt lat="48.65735" lon="7.20255">
        <ele>349.9</ele>
        <time>2020-08-27T12:36:24Z</time>
      </trkpt>
      <trkpt lat="48.65737" lon="7.2024">
        <ele>348.6</ele>
        <time>2020-08-27T12:36:26Z</time>
      </trkpt>
      <trkpt lat="48.65739" lon="7.20227">
        <ele>346.8</ele>
        <time>2020-08-27T12:36:27Z</time>
      </trkpt>
      <trkpt lat="48.65741" lon="7.20219">
        <ele>345.3</ele>
        <time>2020-08-27T12:36:29Z</time>
      </trkpt>
      <trkpt lat="48.65745" lon="7.20212">
        <ele>343.4</ele>
        <time>2020-08-27T12:36:32Z</time>
      </trkpt>
      <trkpt lat="48.65746" lon="7.20204">
        <ele>340.2</ele>
        <time>2020-08-27T12:36:47Z</time>
      </trkpt>
      <trkpt lat="48.6575" lon="7.20199">
        <ele>339</ele>
        <time>2020-08-27T12:36:53Z</time>
      </trkpt>
      <trkpt lat="48.65755" lon="7.20193">
        <ele>341</ele>
        <time>2020-08-27T12:36:56Z</time>
      </trkpt>
      <trkpt lat="48.6576" lon="7.2019">
        <ele>341.9</ele>
        <time>2020-08-27T12:36:58Z</time>
      </trkpt>
      <trkpt lat="48.65765" lon="7.20186">
        <ele>341.8</ele>
        <time>2020-08-27T12:37:00Z</time>
      </trkpt>
      <trkpt lat="48.65771" lon="7.20182">
        <ele>340.7</ele>
        <time>2020-08-27T12:37:03Z</time>
      </trkpt>
      <trkpt lat="48.65776" lon="7.20177">
        <ele>339.4</ele>
        <time>2020-08-27T12:37:06Z</time>
      </trkpt>
      <trkpt lat="48.6578" lon="7.20173">
        <ele>338.2</ele>
        <time>2020-08-27T12:37:09Z</time>
      </trkpt>
      <trkpt lat="48.65784" lon="7.20169">
        <ele>337.2</ele>
        <time>2020-08-27T12:37:11Z</time>
      </trkpt>
      <trkpt lat="48.65789" lon="7.20163">
        <ele>336.1</ele>
        <time>2020-08-27T12:37:13Z</time>
      </trkpt>
      <trkpt lat="48.65794" lon="7.20161">
        <ele>334</ele>
        <time>2020-08-27T12:37:18Z</time>
      </trkpt>
      <trkpt lat="48.65797" lon="7.20155">
        <ele>332.4</ele>
        <time>2020-08-27T12:37:23Z</time>
      </trkpt>
      <trkpt lat="48.65799" lon="7.20149">
        <ele>331.8</ele>
        <time>2020-08-27T12:37:30Z</time>
      </trkpt>
      <trkpt lat="48.65801" lon="7.20142">
        <ele>331.7</ele>
        <time>2020-08-27T12:37:36Z</time>
      </trkpt>
      <trkpt lat="48.65805" lon="7.20135">
        <ele>331.2</ele>
        <time>2020-08-27T12:37:41Z</time>
      </trkpt>
      <trkpt lat="48.65807" lon="7.20129">
        <ele>331.3</ele>
        <time>2020-08-27T12:37:43Z</time>
      </trkpt>
      <trkpt lat="48.6581" lon="7.20121">
        <ele>330.9</ele>
        <time>2020-08-27T12:37:47Z</time>
      </trkpt>
      <trkpt lat="48.65811" lon="7.20113">
        <ele>330.7</ele>
        <time>2020-08-27T12:37:49Z</time>
      </trkpt>
      <trkpt lat="48.65814" lon="7.20104">
        <ele>329.5</ele>
        <time>2020-08-27T12:37:54Z</time>
      </trkpt>
      <trkpt lat="48.65817" lon="7.20097">
        <ele>328.8</ele>
        <time>2020-08-27T12:37:56Z</time>
      </trkpt>
      <trkpt lat="48.65821" lon="7.20087">
        <ele>328.1</ele>
        <time>2020-08-27T12:37:58Z</time>
      </trkpt>
      <trkpt lat="48.65825" lon="7.2008">
        <ele>327.4</ele>
        <time>2020-08-27T12:38:00Z</time>
      </trkpt>
      <trkpt lat="48.65829" lon="7.20069">
        <ele>327.4</ele>
        <time>2020-08-27T12:38:02Z</time>
      </trkpt>
      <trkpt lat="48.6583" lon="7.20059">
        <ele>327.4</ele>
        <time>2020-08-27T12:38:04Z</time>
      </trkpt>
      <trkpt lat="48.65832" lon="7.20051">
        <ele>327.1</ele>
        <time>2020-08-27T12:38:06Z</time>
      </trkpt>
      <trkpt lat="48.65834" lon="7.20042">
        <ele>326.7</ele>
        <time>2020-08-27T12:38:08Z</time>
      </trkpt>
      <trkpt lat="48.65835" lon="7.20036">
        <ele>325.7</ele>
        <time>2020-08-27T12:38:10Z</time>
      </trkpt>
      <trkpt lat="48.65838" lon="7.20027">
        <ele>325</ele>
        <time>2020-08-27T12:38:13Z</time>
      </trkpt>
      <trkpt lat="48.65839" lon="7.20017">
        <ele>324</ele>
        <time>2020-08-27T12:38:16Z</time>
      </trkpt>
      <trkpt lat="48.65841" lon="7.20009">
        <ele>322.2</ele>
        <time>2020-08-27T12:38:18Z</time>
      </trkpt>
      <trkpt lat="48.65846" lon="7.2">
        <ele>321.4</ele>
        <time>2020-08-27T12:38:20Z</time>
      </trkpt>
      <trkpt lat="48.65849" lon="7.19991">
        <ele>321.4</ele>
        <time>2020-08-27T12:38:22Z</time>
      </trkpt>
      <trkpt lat="48.65851" lon="7.19981">
        <ele>320.6</ele>
        <time>2020-08-27T12:38:24Z</time>
      </trkpt>
      <trkpt lat="48.65852" lon="7.19972">
        <ele>320</ele>
        <time>2020-08-27T12:38:26Z</time>
      </trkpt>
      <trkpt lat="48.65854" lon="7.19964">
        <ele>319.8</ele>
        <time>2020-08-27T12:38:29Z</time>
      </trkpt>
      <trkpt lat="48.65859" lon="7.19953">
        <ele>317.6</ele>
        <time>2020-08-27T12:38:31Z</time>
      </trkpt>
      <trkpt lat="48.65863" lon="7.19947">
        <ele>317.1</ele>
        <time>2020-08-27T12:38:33Z</time>
      </trkpt>
      <trkpt lat="48.65866" lon="7.19941">
        <ele>316.3</ele>
        <time>2020-08-27T12:38:36Z</time>
      </trkpt>
      <trkpt lat="48.6587" lon="7.19938">
        <ele>310.1</ele>
        <time>2020-08-27T12:38:46Z</time>
      </trkpt>
      <trkpt lat="48.65871" lon="7.19931">
        <ele>307.4</ele>
        <time>2020-08-27T12:39:08Z</time>
      </trkpt>
      <trkpt lat="48.65873" lon="7.19924">
        <ele>306.6</ele>
        <time>2020-08-27T12:39:12Z</time>
      </trkpt>
      <trkpt lat="48.65875" lon="7.19916">
        <ele>305.6</ele>
        <time>2020-08-27T12:39:17Z</time>
      </trkpt>
      <trkpt lat="48.65877" lon="7.1991">
        <ele>305</ele>
        <time>2020-08-27T12:39:23Z</time>
      </trkpt>
      <trkpt lat="48.65877" lon="7.19903">
        <ele>304.7</ele>
        <time>2020-08-27T12:39:34Z</time>
      </trkpt>
      <trkpt lat="48.65876" lon="7.19896">
        <ele>304.3</ele>
        <time>2020-08-27T12:39:42Z</time>
      </trkpt>
      <trkpt lat="48.65875" lon="7.19888">
        <ele>303.4</ele>
        <time>2020-08-27T12:39:49Z</time>
      </trkpt>
      <trkpt lat="48.65874" lon="7.19881">
        <ele>303.2</ele>
        <time>2020-08-27T12:39:57Z</time>
      </trkpt>
      <trkpt lat="48.65874" lon="7.19874">
        <ele>302</ele>
        <time>2020-08-27T12:40:03Z</time>
      </trkpt>
      <trkpt lat="48.65876" lon="7.19865">
        <ele>300.5</ele>
        <time>2020-08-27T12:40:06Z</time>
      </trkpt>
      <trkpt lat="48.65878" lon="7.19858">
        <ele>302.6</ele>
        <time>2020-08-27T12:40:09Z</time>
      </trkpt>
      <trkpt lat="48.6588" lon="7.1985">
        <ele>301</ele>
        <time>2020-08-27T12:40:13Z</time>
      </trkpt>
      <trkpt lat="48.65883" lon="7.19844">
        <ele>298.8</ele>
        <time>2020-08-27T12:40:16Z</time>
      </trkpt>
      <trkpt lat="48.65885" lon="7.19839">
        <ele>297</ele>
        <time>2020-08-27T12:40:19Z</time>
      </trkpt>
      <trkpt lat="48.65887" lon="7.1983">
        <ele>296</ele>
        <time>2020-08-27T12:40:22Z</time>
      </trkpt>
      <trkpt lat="48.65889" lon="7.19823">
        <ele>294</ele>
        <time>2020-08-27T12:40:25Z</time>
      </trkpt>
      <trkpt lat="48.65891" lon="7.19817">
        <ele>291.3</ele>
        <time>2020-08-27T12:40:32Z</time>
      </trkpt>
      <trkpt lat="48.65894" lon="7.1981">
        <ele>288.2</ele>
        <time>2020-08-27T12:40:41Z</time>
      </trkpt>
      <trkpt lat="48.65894" lon="7.19802">
        <ele>287.4</ele>
        <time>2020-08-27T12:40:49Z</time>
      </trkpt>
      <trkpt lat="48.65887" lon="7.19802">
        <ele>285.5</ele>
        <time>2020-08-27T12:41:06Z</time>
      </trkpt>
      <trkpt lat="48.65881" lon="7.19806">
        <ele>285.6</ele>
        <time>2020-08-27T12:41:09Z</time>
      </trkpt>
      <trkpt lat="48.65878" lon="7.19811">
        <ele>285.6</ele>
        <time>2020-08-27T12:41:11Z</time>
      </trkpt>
      <trkpt lat="48.65874" lon="7.19819">
        <ele>284.2</ele>
        <time>2020-08-27T12:41:14Z</time>
      </trkpt>
      <trkpt lat="48.65871" lon="7.19827">
        <ele>282.9</ele>
        <time>2020-08-27T12:41:17Z</time>
      </trkpt>
      <trkpt lat="48.65869" lon="7.19835">
        <ele>281.9</ele>
        <time>2020-08-27T12:41:20Z</time>
      </trkpt>
      <trkpt lat="48.65866" lon="7.19844">
        <ele>281</ele>
        <time>2020-08-27T12:41:23Z</time>
      </trkpt>
      <trkpt lat="48.65864" lon="7.19851">
        <ele>280.2</ele>
        <time>2020-08-27T12:41:25Z</time>
      </trkpt>
      <trkpt lat="48.65862" lon="7.19858">
        <ele>279.8</ele>
        <time>2020-08-27T12:41:27Z</time>
      </trkpt>
      <trkpt lat="48.6586" lon="7.19864">
        <ele>279.7</ele>
        <time>2020-08-27T12:41:29Z</time>
      </trkpt>
      <trkpt lat="48.65858" lon="7.1987">
        <ele>278.9</ele>
        <time>2020-08-27T12:41:31Z</time>
      </trkpt>
      <trkpt lat="48.65855" lon="7.19879">
        <ele>277.4</ele>
        <time>2020-08-27T12:41:34Z</time>
      </trkpt>
      <trkpt lat="48.65852" lon="7.19886">
        <ele>277.1</ele>
        <time>2020-08-27T12:41:36Z</time>
      </trkpt>
      <trkpt lat="48.6585" lon="7.19893">
        <ele>276.6</ele>
        <time>2020-08-27T12:41:38Z</time>
      </trkpt>
      <trkpt lat="48.65847" lon="7.199">
        <ele>276.5</ele>
        <time>2020-08-27T12:41:41Z</time>
      </trkpt>
      <trkpt lat="48.65843" lon="7.19907">
        <ele>276.7</ele>
        <time>2020-08-27T12:41:43Z</time>
      </trkpt>
      <trkpt lat="48.6584" lon="7.19916">
        <ele>276.3</ele>
        <time>2020-08-27T12:41:45Z</time>
      </trkpt>
      <trkpt lat="48.6584" lon="7.19928">
        <ele>276.1</ele>
        <time>2020-08-27T12:41:48Z</time>
      </trkpt>
      <trkpt lat="48.65838" lon="7.19936">
        <ele>276.2</ele>
        <time>2020-08-27T12:41:50Z</time>
      </trkpt>
      <trkpt lat="48.65837" lon="7.19947">
        <ele>275.6</ele>
        <time>2020-08-27T12:41:52Z</time>
      </trkpt>
      <trkpt lat="48.65836" lon="7.19957">
        <ele>275.5</ele>
        <time>2020-08-27T12:41:54Z</time>
      </trkpt>
      <trkpt lat="48.65833" lon="7.19964">
        <ele>275.1</ele>
        <time>2020-08-27T12:41:56Z</time>
      </trkpt>
      <trkpt lat="48.65831" lon="7.19972">
        <ele>274.7</ele>
        <time>2020-08-27T12:41:58Z</time>
      </trkpt>
      <trkpt lat="48.65829" lon="7.19986">
        <ele>274.8</ele>
        <time>2020-08-27T12:42:00Z</time>
      </trkpt>
      <trkpt lat="48.65827" lon="7.19996">
        <ele>275.8</ele>
        <time>2020-08-27T12:42:03Z</time>
      </trkpt>
      <trkpt lat="48.65826" lon="7.20005">
        <ele>276.6</ele>
        <time>2020-08-27T12:42:04Z</time>
      </trkpt>
      <trkpt lat="48.65822" lon="7.20015">
        <ele>277.4</ele>
        <time>2020-08-27T12:42:06Z</time>
      </trkpt>
      <trkpt lat="48.65815" lon="7.20027">
        <ele>277.1</ele>
        <time>2020-08-27T12:42:08Z</time>
      </trkpt>
      <trkpt lat="48.65808" lon="7.20036">
        <ele>277</ele>
        <time>2020-08-27T12:42:10Z</time>
      </trkpt>
      <trkpt lat="48.65799" lon="7.20044">
        <ele>277.1</ele>
        <time>2020-08-27T12:42:12Z</time>
      </trkpt>
      <trkpt lat="48.6579" lon="7.20054">
        <ele>278</ele>
        <time>2020-08-27T12:42:14Z</time>
      </trkpt>
      <trkpt lat="48.65781" lon="7.20064">
        <ele>279.1</ele>
        <time>2020-08-27T12:42:16Z</time>
      </trkpt>
      <trkpt lat="48.65774" lon="7.20073">
        <ele>280.1</ele>
        <time>2020-08-27T12:42:18Z</time>
      </trkpt>
      <trkpt lat="48.65766" lon="7.2008">
        <ele>281.5</ele>
        <time>2020-08-27T12:42:20Z</time>
      </trkpt>
      <trkpt lat="48.65757" lon="7.20086">
        <ele>283.1</ele>
        <time>2020-08-27T12:42:22Z</time>
      </trkpt>
      <trkpt lat="48.65747" lon="7.20088">
        <ele>283.7</ele>
        <time>2020-08-27T12:42:24Z</time>
      </trkpt>
      <trkpt lat="48.65738" lon="7.20087">
        <ele>284.6</ele>
        <time>2020-08-27T12:42:26Z</time>
      </trkpt>
      <trkpt lat="48.65729" lon="7.20083">
        <ele>285.9</ele>
        <time>2020-08-27T12:42:28Z</time>
      </trkpt>
      <trkpt lat="48.65721" lon="7.20079">
        <ele>286.9</ele>
        <time>2020-08-27T12:42:30Z</time>
      </trkpt>
      <trkpt lat="48.65714" lon="7.20074">
        <ele>286.7</ele>
        <time>2020-08-27T12:42:32Z</time>
      </trkpt>
      <trkpt lat="48.65708" lon="7.20069">
        <ele>286.7</ele>
        <time>2020-08-27T12:42:34Z</time>
      </trkpt>
      <trkpt lat="48.65701" lon="7.20063">
        <ele>286.7</ele>
        <time>2020-08-27T12:42:36Z</time>
      </trkpt>
      <trkpt lat="48.65694" lon="7.20058">
        <ele>286.8</ele>
        <time>2020-08-27T12:42:38Z</time>
      </trkpt>
      <trkpt lat="48.65687" lon="7.20058">
        <ele>286.2</ele>
        <time>2020-08-27T12:42:40Z</time>
      </trkpt>
      <trkpt lat="48.65682" lon="7.20059">
        <ele>285.4</ele>
        <time>2020-08-27T12:42:42Z</time>
      </trkpt>
      <trkpt lat="48.65678" lon="7.20065">
        <ele>284.7</ele>
        <time>2020-08-27T12:42:44Z</time>
      </trkpt>
      <trkpt lat="48.65678" lon="7.20075">
        <ele>283.9</ele>
        <time>2020-08-27T12:42:46Z</time>
      </trkpt>
      <trkpt lat="48.6568" lon="7.20086">
        <ele>283.2</ele>
        <time>2020-08-27T12:42:48Z</time>
      </trkpt>
      <trkpt lat="48.65681" lon="7.20095">
        <ele>282.6</ele>
        <time>2020-08-27T12:42:50Z</time>
      </trkpt>
      <trkpt lat="48.65683" lon="7.20102">
        <ele>282</ele>
        <time>2020-08-27T12:42:52Z</time>
      </trkpt>
      <trkpt lat="48.65685" lon="7.2011">
        <ele>281.3</ele>
        <time>2020-08-27T12:42:54Z</time>
      </trkpt>
      <trkpt lat="48.65687" lon="7.2012">
        <ele>281.2</ele>
        <time>2020-08-27T12:42:57Z</time>
      </trkpt>
      <trkpt lat="48.65687" lon="7.20127">
        <ele>281.1</ele>
        <time>2020-08-27T12:43:00Z</time>
      </trkpt>
      <trkpt lat="48.65687" lon="7.20135">
        <ele>281.2</ele>
        <time>2020-08-27T12:43:02Z</time>
      </trkpt>
      <trkpt lat="48.65686" lon="7.20144">
        <ele>281</ele>
        <time>2020-08-27T12:43:04Z</time>
      </trkpt>
      <trkpt lat="48.65686" lon="7.20155">
        <ele>281.9</ele>
        <time>2020-08-27T12:43:06Z</time>
      </trkpt>
      <trkpt lat="48.65687" lon="7.20164">
        <ele>282.5</ele>
        <time>2020-08-27T12:43:08Z</time>
      </trkpt>
      <trkpt lat="48.65689" lon="7.20173">
        <ele>282.4</ele>
        <time>2020-08-27T12:43:10Z</time>
      </trkpt>
      <trkpt lat="48.6569" lon="7.2018">
        <ele>281.6</ele>
        <time>2020-08-27T12:43:12Z</time>
      </trkpt>
      <trkpt lat="48.65691" lon="7.20189">
        <ele>281.6</ele>
        <time>2020-08-27T12:43:15Z</time>
      </trkpt>
      <trkpt lat="48.65689" lon="7.20197">
        <ele>282.4</ele>
        <time>2020-08-27T12:43:17Z</time>
      </trkpt>
      <trkpt lat="48.65686" lon="7.20206">
        <ele>282.9</ele>
        <time>2020-08-27T12:43:19Z</time>
      </trkpt>
      <trkpt lat="48.65683" lon="7.20214">
        <ele>283.8</ele>
        <time>2020-08-27T12:43:21Z</time>
      </trkpt>
      <trkpt lat="48.65681" lon="7.20222">
        <ele>284.9</ele>
        <time>2020-08-27T12:43:23Z</time>
      </trkpt>
      <trkpt lat="48.65677" lon="7.20231">
        <ele>286.1</ele>
        <time>2020-08-27T12:43:25Z</time>
      </trkpt>
      <trkpt lat="48.65674" lon="7.20239">
        <ele>287.8</ele>
        <time>2020-08-27T12:43:27Z</time>
      </trkpt>
      <trkpt lat="48.65671" lon="7.20249">
        <ele>288.8</ele>
        <time>2020-08-27T12:43:29Z</time>
      </trkpt>
      <trkpt lat="48.65668" lon="7.20259">
        <ele>289.7</ele>
        <time>2020-08-27T12:43:31Z</time>
      </trkpt>
      <trkpt lat="48.65665" lon="7.2027">
        <ele>290.4</ele>
        <time>2020-08-27T12:43:33Z</time>
      </trkpt>
      <trkpt lat="48.65662" lon="7.20282">
        <ele>291.1</ele>
        <time>2020-08-27T12:43:35Z</time>
      </trkpt>
      <trkpt lat="48.65658" lon="7.20291">
        <ele>292.2</ele>
        <time>2020-08-27T12:43:37Z</time>
      </trkpt>
      <trkpt lat="48.65654" lon="7.20298">
        <ele>292.8</ele>
        <time>2020-08-27T12:43:39Z</time>
      </trkpt>
      <trkpt lat="48.65651" lon="7.20305">
        <ele>292.8</ele>
        <time>2020-08-27T12:43:41Z</time>
      </trkpt>
      <trkpt lat="48.65647" lon="7.20307">
        <ele>299.4</ele>
        <time>2020-08-27T12:44:07Z</time>
      </trkpt>
      <trkpt lat="48.65642" lon="7.20309">
        <ele>299.2</ele>
        <time>2020-08-27T12:44:14Z</time>
      </trkpt>
      <trkpt lat="48.65635" lon="7.20313">
        <ele>298</ele>
        <time>2020-08-27T12:44:17Z</time>
      </trkpt>
      <trkpt lat="48.65631" lon="7.20316">
        <ele>297</ele>
        <time>2020-08-27T12:44:19Z</time>
      </trkpt>
      <trkpt lat="48.65627" lon="7.20323">
        <ele>296.3</ele>
        <time>2020-08-27T12:44:22Z</time>
      </trkpt>
      <trkpt lat="48.65623" lon="7.20328">
        <ele>297</ele>
        <time>2020-08-27T12:44:27Z</time>
      </trkpt>
      <trkpt lat="48.65618" lon="7.20331">
        <ele>299.8</ele>
        <time>2020-08-27T12:44:36Z</time>
      </trkpt>
      <trkpt lat="48.65613" lon="7.20332">
        <ele>299.1</ele>
        <time>2020-08-27T12:44:38Z</time>
      </trkpt>
      <trkpt lat="48.65608" lon="7.20334">
        <ele>298.3</ele>
        <time>2020-08-27T12:44:40Z</time>
      </trkpt>
      <trkpt lat="48.65604" lon="7.20339">
        <ele>298</ele>
        <time>2020-08-27T12:44:42Z</time>
      </trkpt>
      <trkpt lat="48.65599" lon="7.20345">
        <ele>297.6</ele>
        <time>2020-08-27T12:44:44Z</time>
      </trkpt>
      <trkpt lat="48.65595" lon="7.2035">
        <ele>296.3</ele>
        <time>2020-08-27T12:44:46Z</time>
      </trkpt>
      <trkpt lat="48.65591" lon="7.20353">
        <ele>295.3</ele>
        <time>2020-08-27T12:44:48Z</time>
      </trkpt>
      <trkpt lat="48.65584" lon="7.20354">
        <ele>295.2</ele>
        <time>2020-08-27T12:44:51Z</time>
      </trkpt>
      <trkpt lat="48.65579" lon="7.2035">
        <ele>310.2</ele>
        <time>2020-08-27T12:44:54Z</time>
      </trkpt>
      <trkpt lat="48.65574" lon="7.20347">
        <ele>313.4</ele>
        <time>2020-08-27T12:44:56Z</time>
      </trkpt>
      <trkpt lat="48.65569" lon="7.20345">
        <ele>321.2</ele>
        <time>2020-08-27T12:44:58Z</time>
      </trkpt>
      <trkpt lat="48.65565" lon="7.20349">
        <ele>318.6</ele>
        <time>2020-08-27T12:45:02Z</time>
      </trkpt>
      <trkpt lat="48.65562" lon="7.20355">
        <ele>327.5</ele>
        <time>2020-08-27T12:45:09Z</time>
      </trkpt>
      <trkpt lat="48.65557" lon="7.20358">
        <ele>326.7</ele>
        <time>2020-08-27T12:45:14Z</time>
      </trkpt>
      <trkpt lat="48.65553" lon="7.2036">
        <ele>318.2</ele>
        <time>2020-08-27T12:45:18Z</time>
      </trkpt>
      <trkpt lat="48.65548" lon="7.20362">
        <ele>307</ele>
        <time>2020-08-27T12:45:24Z</time>
      </trkpt>
      <trkpt lat="48.65544" lon="7.20359">
        <ele>297.9</ele>
        <time>2020-08-27T12:45:32Z</time>
      </trkpt>
      <trkpt lat="48.6554" lon="7.2035">
        <ele>296.5</ele>
        <time>2020-08-27T12:45:35Z</time>
      </trkpt>
      <trkpt lat="48.65539" lon="7.20342">
        <ele>294.4</ele>
        <time>2020-08-27T12:45:37Z</time>
      </trkpt>
      <trkpt lat="48.65539" lon="7.20333">
        <ele>293.5</ele>
        <time>2020-08-27T12:45:39Z</time>
      </trkpt>
      <trkpt lat="48.6554" lon="7.20323">
        <ele>293</ele>
        <time>2020-08-27T12:45:41Z</time>
      </trkpt>
      <trkpt lat="48.65541" lon="7.20312">
        <ele>293</ele>
        <time>2020-08-27T12:45:43Z</time>
      </trkpt>
      <trkpt lat="48.6554" lon="7.203">
        <ele>292</ele>
        <time>2020-08-27T12:45:45Z</time>
      </trkpt>
      <trkpt lat="48.6554" lon="7.20289">
        <ele>290.6</ele>
        <time>2020-08-27T12:45:47Z</time>
      </trkpt>
      <trkpt lat="48.65543" lon="7.20277">
        <ele>289.5</ele>
        <time>2020-08-27T12:45:49Z</time>
      </trkpt>
      <trkpt lat="48.65547" lon="7.20267">
        <ele>288.1</ele>
        <time>2020-08-27T12:45:51Z</time>
      </trkpt>
      <trkpt lat="48.65552" lon="7.20257">
        <ele>287.4</ele>
        <time>2020-08-27T12:45:53Z</time>
      </trkpt>
      <trkpt lat="48.65558" lon="7.20249">
        <ele>287.1</ele>
        <time>2020-08-27T12:45:55Z</time>
      </trkpt>
      <trkpt lat="48.65564" lon="7.20241">
        <ele>287</ele>
        <time>2020-08-27T12:45:57Z</time>
      </trkpt>
      <trkpt lat="48.65569" lon="7.20231">
        <ele>287.6</ele>
        <time>2020-08-27T12:45:59Z</time>
      </trkpt>
      <trkpt lat="48.65572" lon="7.20223">
        <ele>287.4</ele>
        <time>2020-08-27T12:46:01Z</time>
      </trkpt>
      <trkpt lat="48.65574" lon="7.20216">
        <ele>288.1</ele>
        <time>2020-08-27T12:46:04Z</time>
      </trkpt>
      <trkpt lat="48.65571" lon="7.20221">
        <ele>288.8</ele>
        <time>2020-08-27T12:46:08Z</time>
      </trkpt>
      <trkpt lat="48.65567" lon="7.20225">
        <ele>289.8</ele>
        <time>2020-08-27T12:46:25Z</time>
      </trkpt>
      <trkpt lat="48.65562" lon="7.2023">
        <ele>290.4</ele>
        <time>2020-08-27T12:46:28Z</time>
      </trkpt>
      <trkpt lat="48.65558" lon="7.20235">
        <ele>290.5</ele>
        <time>2020-08-27T12:46:30Z</time>
      </trkpt>
      <trkpt lat="48.65553" lon="7.20241">
        <ele>290.5</ele>
        <time>2020-08-27T12:46:32Z</time>
      </trkpt>
      <trkpt lat="48.65547" lon="7.20247">
        <ele>290</ele>
        <time>2020-08-27T12:46:34Z</time>
      </trkpt>
      <trkpt lat="48.6554" lon="7.20251">
        <ele>289.4</ele>
        <time>2020-08-27T12:46:36Z</time>
      </trkpt>
      <trkpt lat="48.65531" lon="7.20255">
        <ele>288.8</ele>
        <time>2020-08-27T12:46:38Z</time>
      </trkpt>
      <trkpt lat="48.65522" lon="7.20259">
        <ele>288.6</ele>
        <time>2020-08-27T12:46:40Z</time>
      </trkpt>
      <trkpt lat="48.65511" lon="7.20261">
        <ele>288</ele>
        <time>2020-08-27T12:46:42Z</time>
      </trkpt>
      <trkpt lat="48.65502" lon="7.20264">
        <ele>287.7</ele>
        <time>2020-08-27T12:46:44Z</time>
      </trkpt>
      <trkpt lat="48.65491" lon="7.20265">
        <ele>287.6</ele>
        <time>2020-08-27T12:46:46Z</time>
      </trkpt>
      <trkpt lat="48.65481" lon="7.20263">
        <ele>287.8</ele>
        <time>2020-08-27T12:46:48Z</time>
      </trkpt>
      <trkpt lat="48.6547" lon="7.20261">
        <ele>287.7</ele>
        <time>2020-08-27T12:46:50Z</time>
      </trkpt>
      <trkpt lat="48.65461" lon="7.20257">
        <ele>287.7</ele>
        <time>2020-08-27T12:46:52Z</time>
      </trkpt>
      <trkpt lat="48.65451" lon="7.20254">
        <ele>287.6</ele>
        <time>2020-08-27T12:46:54Z</time>
      </trkpt>
      <trkpt lat="48.6544" lon="7.20252">
        <ele>287.1</ele>
        <time>2020-08-27T12:46:56Z</time>
      </trkpt>
      <trkpt lat="48.65429" lon="7.20249">
        <ele>286.8</ele>
        <time>2020-08-27T12:46:58Z</time>
      </trkpt>
      <trkpt lat="48.65418" lon="7.20246">
        <ele>286.2</ele>
        <time>2020-08-27T12:47:00Z</time>
      </trkpt>
      <trkpt lat="48.65406" lon="7.20243">
        <ele>286</ele>
        <time>2020-08-27T12:47:02Z</time>
      </trkpt>
      <trkpt lat="48.65395" lon="7.20237">
        <ele>285.9</ele>
        <time>2020-08-27T12:47:04Z</time>
      </trkpt>
      <trkpt lat="48.65382" lon="7.20231">
        <ele>285.6</ele>
        <time>2020-08-27T12:47:06Z</time>
      </trkpt>
      <trkpt lat="48.65371" lon="7.20221">
        <ele>285.8</ele>
        <time>2020-08-27T12:47:08Z</time>
      </trkpt>
      <trkpt lat="48.65358" lon="7.20211">
        <ele>286</ele>
        <time>2020-08-27T12:47:10Z</time>
      </trkpt>
      <trkpt lat="48.65345" lon="7.20201">
        <ele>286.4</ele>
        <time>2020-08-27T12:47:12Z</time>
      </trkpt>
      <trkpt lat="48.65332" lon="7.20191">
        <ele>286.9</ele>
        <time>2020-08-27T12:47:14Z</time>
      </trkpt>
      <trkpt lat="48.65318" lon="7.20181">
        <ele>287.2</ele>
        <time>2020-08-27T12:47:16Z</time>
      </trkpt>
      <trkpt lat="48.65305" lon="7.2017">
        <ele>287.6</ele>
        <time>2020-08-27T12:47:18Z</time>
      </trkpt>
      <trkpt lat="48.65293" lon="7.20159">
        <ele>287.6</ele>
        <time>2020-08-27T12:47:20Z</time>
      </trkpt>
      <trkpt lat="48.65279" lon="7.20149">
        <ele>287.6</ele>
        <time>2020-08-27T12:47:22Z</time>
      </trkpt>
      <trkpt lat="48.65266" lon="7.2014">
        <ele>287.7</ele>
        <time>2020-08-27T12:47:24Z</time>
      </trkpt>
      <trkpt lat="48.65252" lon="7.20131">
        <ele>287.9</ele>
        <time>2020-08-27T12:47:26Z</time>
      </trkpt>
      <trkpt lat="48.65238" lon="7.20124">
        <ele>288.5</ele>
        <time>2020-08-27T12:47:28Z</time>
      </trkpt>
      <trkpt lat="48.65224" lon="7.20119">
        <ele>288.5</ele>
        <time>2020-08-27T12:47:30Z</time>
      </trkpt>
      <trkpt lat="48.6521" lon="7.20114">
        <ele>288.4</ele>
        <time>2020-08-27T12:47:32Z</time>
      </trkpt>
      <trkpt lat="48.65195" lon="7.2011">
        <ele>288.6</ele>
        <time>2020-08-27T12:47:34Z</time>
      </trkpt>
      <trkpt lat="48.65181" lon="7.20108">
        <ele>288.6</ele>
        <time>2020-08-27T12:47:36Z</time>
      </trkpt>
      <trkpt lat="48.65166" lon="7.20107">
        <ele>289.1</ele>
        <time>2020-08-27T12:47:38Z</time>
      </trkpt>
      <trkpt lat="48.6515" lon="7.20105">
        <ele>289.2</ele>
        <time>2020-08-27T12:47:40Z</time>
      </trkpt>
      <trkpt lat="48.65136" lon="7.20102">
        <ele>289.4</ele>
        <time>2020-08-27T12:47:42Z</time>
      </trkpt>
      <trkpt lat="48.65122" lon="7.20095">
        <ele>290.1</ele>
        <time>2020-08-27T12:47:44Z</time>
      </trkpt>
      <trkpt lat="48.65109" lon="7.20086">
        <ele>290.2</ele>
        <time>2020-08-27T12:47:46Z</time>
      </trkpt>
      <trkpt lat="48.65097" lon="7.20074">
        <ele>290.1</ele>
        <time>2020-08-27T12:47:48Z</time>
      </trkpt>
      <trkpt lat="48.65086" lon="7.2006">
        <ele>290.3</ele>
        <time>2020-08-27T12:47:50Z</time>
      </trkpt>
      <trkpt lat="48.65075" lon="7.20043">
        <ele>290.2</ele>
        <time>2020-08-27T12:47:52Z</time>
      </trkpt>
      <trkpt lat="48.65065" lon="7.20025">
        <ele>289.9</ele>
        <time>2020-08-27T12:47:54Z</time>
      </trkpt>
      <trkpt lat="48.65054" lon="7.20008">
        <ele>290</ele>
        <time>2020-08-27T12:47:56Z</time>
      </trkpt>
      <trkpt lat="48.65043" lon="7.19992">
        <ele>289.9</ele>
        <time>2020-08-27T12:47:58Z</time>
      </trkpt>
      <trkpt lat="48.65032" lon="7.19976">
        <ele>289.4</ele>
        <time>2020-08-27T12:48:00Z</time>
      </trkpt>
      <trkpt lat="48.65021" lon="7.19959">
        <ele>289.1</ele>
        <time>2020-08-27T12:48:02Z</time>
      </trkpt>
      <trkpt lat="48.6501" lon="7.19944">
        <ele>288.8</ele>
        <time>2020-08-27T12:48:04Z</time>
      </trkpt>
      <trkpt lat="48.64997" lon="7.19929">
        <ele>288.9</ele>
        <time>2020-08-27T12:48:06Z</time>
      </trkpt>
      <trkpt lat="48.64984" lon="7.19918">
        <ele>289</ele>
        <time>2020-08-27T12:48:08Z</time>
      </trkpt>
      <trkpt lat="48.64969" lon="7.19912">
        <ele>289.1</ele>
        <time>2020-08-27T12:48:10Z</time>
      </trkpt>
      <trkpt lat="48.64954" lon="7.19912">
        <ele>289.7</ele>
        <time>2020-08-27T12:48:12Z</time>
      </trkpt>
      <trkpt lat="48.64939" lon="7.19915">
        <ele>290</ele>
        <time>2020-08-27T12:48:14Z</time>
      </trkpt>
      <trkpt lat="48.64925" lon="7.19923">
        <ele>290.6</ele>
        <time>2020-08-27T12:48:16Z</time>
      </trkpt>
      <trkpt lat="48.64912" lon="7.19935">
        <ele>290.9</ele>
        <time>2020-08-27T12:48:18Z</time>
      </trkpt>
      <trkpt lat="48.649" lon="7.1995">
        <ele>291.3</ele>
        <time>2020-08-27T12:48:20Z</time>
      </trkpt>
      <trkpt lat="48.64889" lon="7.19967">
        <ele>291.9</ele>
        <time>2020-08-27T12:48:22Z</time>
      </trkpt>
      <trkpt lat="48.6488" lon="7.19985">
        <ele>292.5</ele>
        <time>2020-08-27T12:48:24Z</time>
      </trkpt>
      <trkpt lat="48.64872" lon="7.20002">
        <ele>293.2</ele>
        <time>2020-08-27T12:48:26Z</time>
      </trkpt>
      <trkpt lat="48.64863" lon="7.20019">
        <ele>293.7</ele>
        <time>2020-08-27T12:48:28Z</time>
      </trkpt>
      <trkpt lat="48.64854" lon="7.20035">
        <ele>294</ele>
        <time>2020-08-27T12:48:30Z</time>
      </trkpt>
      <trkpt lat="48.64845" lon="7.20048">
        <ele>294</ele>
        <time>2020-08-27T12:48:32Z</time>
      </trkpt>
      <trkpt lat="48.64839" lon="7.20058">
        <ele>293.4</ele>
        <time>2020-08-27T12:48:34Z</time>
      </trkpt>
      <trkpt lat="48.64838" lon="7.20066">
        <ele>292.9</ele>
        <time>2020-08-27T12:48:36Z</time>
      </trkpt>
      <trkpt lat="48.64841" lon="7.20072">
        <ele>292.1</ele>
        <time>2020-08-27T12:48:38Z</time>
      </trkpt>
      <trkpt lat="48.64846" lon="7.20078">
        <ele>291.4</ele>
        <time>2020-08-27T12:48:40Z</time>
      </trkpt>
      <trkpt lat="48.64852" lon="7.20085">
        <ele>290.8</ele>
        <time>2020-08-27T12:48:42Z</time>
      </trkpt>
      <trkpt lat="48.64858" lon="7.20094">
        <ele>290.9</ele>
        <time>2020-08-27T12:48:44Z</time>
      </trkpt>
      <trkpt lat="48.64866" lon="7.20101">
        <ele>290.8</ele>
        <time>2020-08-27T12:48:46Z</time>
      </trkpt>
      <trkpt lat="48.64872" lon="7.20109">
        <ele>291</ele>
        <time>2020-08-27T12:48:48Z</time>
      </trkpt>
      <trkpt lat="48.64876" lon="7.20114">
        <ele>291.2</ele>
        <time>2020-08-27T12:48:50Z</time>
      </trkpt>
      <trkpt lat="48.64882" lon="7.20114">
        <ele>288.2</ele>
        <time>2020-08-27T12:49:03Z</time>
      </trkpt>
      <trkpt lat="48.64886" lon="7.2011">
        <ele>288</ele>
        <time>2020-08-27T12:49:05Z</time>
      </trkpt>
      <trkpt lat="48.64891" lon="7.20104">
        <ele>287.2</ele>
        <time>2020-08-27T12:49:07Z</time>
      </trkpt>
      <trkpt lat="48.64896" lon="7.20097">
        <ele>288</ele>
        <time>2020-08-27T12:49:09Z</time>
      </trkpt>
      <trkpt lat="48.64903" lon="7.20091">
        <ele>288.2</ele>
        <time>2020-08-27T12:49:11Z</time>
      </trkpt>
      <trkpt lat="48.64911" lon="7.20083">
        <ele>288.7</ele>
        <time>2020-08-27T12:49:13Z</time>
      </trkpt>
      <trkpt lat="48.6492" lon="7.20075">
        <ele>288.8</ele>
        <time>2020-08-27T12:49:15Z</time>
      </trkpt>
      <trkpt lat="48.6493" lon="7.20071">
        <ele>289.3</ele>
        <time>2020-08-27T12:49:17Z</time>
      </trkpt>
      <trkpt lat="48.64939" lon="7.2007">
        <ele>289.6</ele>
        <time>2020-08-27T12:49:19Z</time>
      </trkpt>
      <trkpt lat="48.64948" lon="7.2007">
        <ele>290</ele>
        <time>2020-08-27T12:49:21Z</time>
      </trkpt>
      <trkpt lat="48.64956" lon="7.2007">
        <ele>290.2</ele>
        <time>2020-08-27T12:49:23Z</time>
      </trkpt>
      <trkpt lat="48.64962" lon="7.20071">
        <ele>291.2</ele>
        <time>2020-08-27T12:49:25Z</time>
      </trkpt>
      <trkpt lat="48.64967" lon="7.20072">
        <ele>291.1</ele>
        <time>2020-08-27T12:49:29Z</time>
      </trkpt>
      <trkpt lat="48.64972" lon="7.20072">
        <ele>289.2</ele>
        <time>2020-08-27T12:49:38Z</time>
      </trkpt>
      <trkpt lat="48.64975" lon="7.20077">
        <ele>290.5</ele>
        <time>2020-08-27T12:49:43Z</time>
      </trkpt>
      <trkpt lat="48.64979" lon="7.20079">
        <ele>294.3</ele>
        <time>2020-08-27T12:49:54Z</time>
      </trkpt>
      <trkpt lat="48.64984" lon="7.20082">
        <ele>297.1</ele>
        <time>2020-08-27T12:49:59Z</time>
      </trkpt>
      <trkpt lat="48.64989" lon="7.20086">
        <ele>299</ele>
        <time>2020-08-27T12:50:09Z</time>
      </trkpt>
      <trkpt lat="48.64993" lon="7.2009">
        <ele>302.5</ele>
        <time>2020-08-27T12:50:16Z</time>
      </trkpt>
      <trkpt lat="48.64996" lon="7.20096">
        <ele>304.1</ele>
        <time>2020-08-27T12:50:20Z</time>
      </trkpt>
      <trkpt lat="48.65" lon="7.20101">
        <ele>306.4</ele>
        <time>2020-08-27T12:50:25Z</time>
      </trkpt>
      <trkpt lat="48.65004" lon="7.20105">
        <ele>308</ele>
        <time>2020-08-27T12:50:30Z</time>
      </trkpt>
      <trkpt lat="48.65008" lon="7.20109">
        <ele>308.5</ele>
        <time>2020-08-27T12:51:07Z</time>
      </trkpt>
      <trkpt lat="48.65011" lon="7.20117">
        <ele>307.3</ele>
        <time>2020-08-27T12:51:15Z</time>
      </trkpt>
      <trkpt lat="48.65013" lon="7.20124">
        <ele>306.8</ele>
        <time>2020-08-27T12:51:19Z</time>
      </trkpt>
      <trkpt lat="48.65015" lon="7.2013">
        <ele>308.4</ele>
        <time>2020-08-27T12:51:24Z</time>
      </trkpt>
      <trkpt lat="48.65019" lon="7.20135">
        <ele>309.2</ele>
        <time>2020-08-27T12:51:29Z</time>
      </trkpt>
      <trkpt lat="48.65022" lon="7.20142">
        <ele>311.2</ele>
        <time>2020-08-27T12:51:59Z</time>
      </trkpt>
      <trkpt lat="48.65025" lon="7.20147">
        <ele>311.2</ele>
        <time>2020-08-27T12:52:03Z</time>
      </trkpt>
      <trkpt lat="48.65028" lon="7.20153">
        <ele>310.5</ele>
        <time>2020-08-27T12:52:10Z</time>
      </trkpt>
      <trkpt lat="48.65031" lon="7.20159">
        <ele>309.5</ele>
        <time>2020-08-27T12:52:22Z</time>
      </trkpt>
      <trkpt lat="48.65035" lon="7.20163">
        <ele>309.3</ele>
        <time>2020-08-27T12:52:31Z</time>
      </trkpt>
      <trkpt lat="48.65039" lon="7.20167">
        <ele>309</ele>
        <time>2020-08-27T12:52:42Z</time>
      </trkpt>
      <trkpt lat="48.65042" lon="7.20172">
        <ele>309.3</ele>
        <time>2020-08-27T12:52:48Z</time>
      </trkpt>
      <trkpt lat="48.65045" lon="7.20178">
        <ele>309.3</ele>
        <time>2020-08-27T12:52:53Z</time>
      </trkpt>
      <trkpt lat="48.65049" lon="7.20184">
        <ele>309.5</ele>
        <time>2020-08-27T12:53:01Z</time>
      </trkpt>
      <trkpt lat="48.65052" lon="7.20188">
        <ele>309.6</ele>
        <time>2020-08-27T12:53:15Z</time>
      </trkpt>
      <trkpt lat="48.65057" lon="7.2019">
        <ele>314.5</ele>
        <time>2020-08-27T12:53:48Z</time>
      </trkpt>
      <trkpt lat="48.65061" lon="7.20194">
        <ele>317</ele>
        <time>2020-08-27T12:53:59Z</time>
      </trkpt>
      <trkpt lat="48.65064" lon="7.202">
        <ele>319.1</ele>
        <time>2020-08-27T12:54:06Z</time>
      </trkpt>
      <trkpt lat="48.65069" lon="7.20204">
        <ele>321.4</ele>
        <time>2020-08-27T12:54:12Z</time>
      </trkpt>
      <trkpt lat="48.65072" lon="7.20209">
        <ele>323</ele>
        <time>2020-08-27T12:54:19Z</time>
      </trkpt>
      <trkpt lat="48.65075" lon="7.20215">
        <ele>327.2</ele>
        <time>2020-08-27T12:54:48Z</time>
      </trkpt>
      <trkpt lat="48.65078" lon="7.20221">
        <ele>325.2</ele>
        <time>2020-08-27T12:54:54Z</time>
      </trkpt>
      <trkpt lat="48.65082" lon="7.20224">
        <ele>323.5</ele>
        <time>2020-08-27T12:54:59Z</time>
      </trkpt>
      <trkpt lat="48.65086" lon="7.20227">
        <ele>325.9</ele>
        <time>2020-08-27T12:55:13Z</time>
      </trkpt>
      <trkpt lat="48.65091" lon="7.2023">
        <ele>331.4</ele>
        <time>2020-08-27T12:55:20Z</time>
      </trkpt>
      <trkpt lat="48.65095" lon="7.20235">
        <ele>329.7</ele>
        <time>2020-08-27T12:55:26Z</time>
      </trkpt>
      <trkpt lat="48.65099" lon="7.2024">
        <ele>328.7</ele>
        <time>2020-08-27T12:55:31Z</time>
      </trkpt>
      <trkpt lat="48.65105" lon="7.20244">
        <ele>328.5</ele>
        <time>2020-08-27T12:55:36Z</time>
      </trkpt>
      <trkpt lat="48.65109" lon="7.20248">
        <ele>328</ele>
        <time>2020-08-27T12:55:41Z</time>
      </trkpt>
      <trkpt lat="48.65113" lon="7.20253">
        <ele>328.5</ele>
        <time>2020-08-27T12:55:44Z</time>
      </trkpt>
      <trkpt lat="48.65117" lon="7.20256">
        <ele>329.1</ele>
        <time>2020-08-27T12:55:49Z</time>
      </trkpt>
      <trkpt lat="48.65121" lon="7.20262">
        <ele>330.2</ele>
        <time>2020-08-27T12:55:56Z</time>
      </trkpt>
      <trkpt lat="48.65125" lon="7.20265">
        <ele>334.2</ele>
        <time>2020-08-27T12:56:00Z</time>
      </trkpt>
      <trkpt lat="48.6513" lon="7.20266">
        <ele>333.3</ele>
        <time>2020-08-27T12:56:04Z</time>
      </trkpt>
      <trkpt lat="48.65135" lon="7.20268">
        <ele>333.2</ele>
        <time>2020-08-27T12:56:11Z</time>
      </trkpt>
      <trkpt lat="48.6514" lon="7.2027">
        <ele>339</ele>
        <time>2020-08-27T12:56:17Z</time>
      </trkpt>
      <trkpt lat="48.65144" lon="7.20272">
        <ele>340.5</ele>
        <time>2020-08-27T12:56:21Z</time>
      </trkpt>
      <trkpt lat="48.65149" lon="7.20275">
        <ele>338.1</ele>
        <time>2020-08-27T12:56:26Z</time>
      </trkpt>
      <trkpt lat="48.65153" lon="7.20278">
        <ele>336.6</ele>
        <time>2020-08-27T12:56:30Z</time>
      </trkpt>
      <trkpt lat="48.65157" lon="7.20279">
        <ele>336.7</ele>
        <time>2020-08-27T12:56:34Z</time>
      </trkpt>
      <trkpt lat="48.65162" lon="7.20277">
        <ele>338.7</ele>
        <time>2020-08-27T12:56:44Z</time>
      </trkpt>
      <trkpt lat="48.65166" lon="7.2028">
        <ele>340.4</ele>
        <time>2020-08-27T12:56:51Z</time>
      </trkpt>
      <trkpt lat="48.6517" lon="7.20284">
        <ele>342.6</ele>
        <time>2020-08-27T12:56:55Z</time>
      </trkpt>
      <trkpt lat="48.65174" lon="7.20288">
        <ele>343.9</ele>
        <time>2020-08-27T12:57:01Z</time>
      </trkpt>
      <trkpt lat="48.65179" lon="7.20293">
        <ele>344.6</ele>
        <time>2020-08-27T12:57:05Z</time>
      </trkpt>
      <trkpt lat="48.65183" lon="7.20295">
        <ele>345.4</ele>
        <time>2020-08-27T12:57:10Z</time>
      </trkpt>
      <trkpt lat="48.65187" lon="7.20299">
        <ele>346.3</ele>
        <time>2020-08-27T12:57:16Z</time>
      </trkpt>
      <trkpt lat="48.65192" lon="7.20302">
        <ele>348.1</ele>
        <time>2020-08-27T12:57:23Z</time>
      </trkpt>
      <trkpt lat="48.65196" lon="7.20302">
        <ele>348.3</ele>
        <time>2020-08-27T12:57:28Z</time>
      </trkpt>
      <trkpt lat="48.652" lon="7.20307">
        <ele>347.6</ele>
        <time>2020-08-27T12:57:32Z</time>
      </trkpt>
      <trkpt lat="48.65204" lon="7.20311">
        <ele>347.2</ele>
        <time>2020-08-27T12:57:36Z</time>
      </trkpt>
      <trkpt lat="48.65209" lon="7.20315">
        <ele>347.1</ele>
        <time>2020-08-27T12:57:41Z</time>
      </trkpt>
      <trkpt lat="48.65211" lon="7.20322">
        <ele>347.5</ele>
        <time>2020-08-27T12:57:48Z</time>
      </trkpt>
      <trkpt lat="48.65215" lon="7.20327">
        <ele>349.5</ele>
        <time>2020-08-27T12:57:54Z</time>
      </trkpt>
      <trkpt lat="48.65219" lon="7.20332">
        <ele>350.6</ele>
        <time>2020-08-27T12:57:59Z</time>
      </trkpt>
      <trkpt lat="48.65223" lon="7.20336">
        <ele>352.5</ele>
        <time>2020-08-27T12:58:04Z</time>
      </trkpt>
      <trkpt lat="48.65227" lon="7.20339">
        <ele>354.2</ele>
        <time>2020-08-27T12:58:10Z</time>
      </trkpt>
      <trkpt lat="48.6523" lon="7.20344">
        <ele>356.2</ele>
        <time>2020-08-27T12:58:15Z</time>
      </trkpt>
      <trkpt lat="48.65234" lon="7.2035">
        <ele>356.8</ele>
        <time>2020-08-27T12:58:20Z</time>
      </trkpt>
      <trkpt lat="48.65237" lon="7.20355">
        <ele>357.6</ele>
        <time>2020-08-27T12:58:27Z</time>
      </trkpt>
      <trkpt lat="48.65239" lon="7.20361">
        <ele>357.5</ele>
        <time>2020-08-27T12:58:37Z</time>
      </trkpt>
      <trkpt lat="48.65242" lon="7.20367">
        <ele>358.4</ele>
        <time>2020-08-27T12:58:42Z</time>
      </trkpt>
      <trkpt lat="48.65246" lon="7.20374">
        <ele>357.6</ele>
        <time>2020-08-27T12:58:46Z</time>
      </trkpt>
      <trkpt lat="48.65248" lon="7.20381">
        <ele>357</ele>
        <time>2020-08-27T12:58:49Z</time>
      </trkpt>
      <trkpt lat="48.65251" lon="7.20387">
        <ele>356.3</ele>
        <time>2020-08-27T12:58:53Z</time>
      </trkpt>
      <trkpt lat="48.65255" lon="7.20392">
        <ele>356.5</ele>
        <time>2020-08-27T12:58:58Z</time>
      </trkpt>
      <trkpt lat="48.65258" lon="7.20397">
        <ele>357.2</ele>
        <time>2020-08-27T12:59:05Z</time>
      </trkpt>
      <trkpt lat="48.65262" lon="7.20403">
        <ele>358.3</ele>
        <time>2020-08-27T12:59:14Z</time>
      </trkpt>
      <trkpt lat="48.65265" lon="7.2041">
        <ele>360.1</ele>
        <time>2020-08-27T12:59:19Z</time>
      </trkpt>
      <trkpt lat="48.65268" lon="7.20417">
        <ele>361.6</ele>
        <time>2020-08-27T12:59:23Z</time>
      </trkpt>
      <trkpt lat="48.6527" lon="7.20423">
        <ele>364.2</ele>
        <time>2020-08-27T12:59:27Z</time>
      </trkpt>
      <trkpt lat="48.65274" lon="7.2043">
        <ele>365.9</ele>
        <time>2020-08-27T12:59:32Z</time>
      </trkpt>
      <trkpt lat="48.65277" lon="7.20435">
        <ele>366.8</ele>
        <time>2020-08-27T12:59:35Z</time>
      </trkpt>
      <trkpt lat="48.6528" lon="7.2044">
        <ele>367.8</ele>
        <time>2020-08-27T12:59:38Z</time>
      </trkpt>
      <trkpt lat="48.65282" lon="7.20447">
        <ele>368.6</ele>
        <time>2020-08-27T12:59:43Z</time>
      </trkpt>
      <trkpt lat="48.65283" lon="7.20453">
        <ele>370.6</ele>
        <time>2020-08-27T12:59:49Z</time>
      </trkpt>
      <trkpt lat="48.65286" lon="7.20459">
        <ele>372.3</ele>
        <time>2020-08-27T12:59:54Z</time>
      </trkpt>
      <trkpt lat="48.65289" lon="7.20464">
        <ele>373.8</ele>
        <time>2020-08-27T12:59:58Z</time>
      </trkpt>
      <trkpt lat="48.6529" lon="7.20472">
        <ele>374.8</ele>
        <time>2020-08-27T13:00:04Z</time>
      </trkpt>
      <trkpt lat="48.65292" lon="7.2048">
        <ele>374.9</ele>
        <time>2020-08-27T13:00:09Z</time>
      </trkpt>
      <trkpt lat="48.65295" lon="7.20487">
        <ele>375.7</ele>
        <time>2020-08-27T13:00:14Z</time>
      </trkpt>
      <trkpt lat="48.65298" lon="7.20493">
        <ele>377.4</ele>
        <time>2020-08-27T13:00:18Z</time>
      </trkpt>
      <trkpt lat="48.65301" lon="7.205">
        <ele>376.9</ele>
        <time>2020-08-27T13:00:22Z</time>
      </trkpt>
      <trkpt lat="48.65303" lon="7.20507">
        <ele>374.8</ele>
        <time>2020-08-27T13:00:27Z</time>
      </trkpt>
      <trkpt lat="48.65305" lon="7.20513">
        <ele>373.9</ele>
        <time>2020-08-27T13:00:31Z</time>
      </trkpt>
      <trkpt lat="48.65307" lon="7.2052">
        <ele>373.9</ele>
        <time>2020-08-27T13:00:36Z</time>
      </trkpt>
      <trkpt lat="48.6531" lon="7.20527">
        <ele>374</ele>
        <time>2020-08-27T13:00:54Z</time>
      </trkpt>
      <trkpt lat="48.65311" lon="7.20533">
        <ele>374.4</ele>
        <time>2020-08-27T13:01:00Z</time>
      </trkpt>
      <trkpt lat="48.65315" lon="7.2054">
        <ele>376.1</ele>
        <time>2020-08-27T13:01:06Z</time>
      </trkpt>
      <trkpt lat="48.65318" lon="7.20545">
        <ele>376.5</ele>
        <time>2020-08-27T13:01:11Z</time>
      </trkpt>
      <trkpt lat="48.65321" lon="7.20551">
        <ele>376</ele>
        <time>2020-08-27T13:01:15Z</time>
      </trkpt>
      <trkpt lat="48.65324" lon="7.20557">
        <ele>376.1</ele>
        <time>2020-08-27T13:01:19Z</time>
      </trkpt>
      <trkpt lat="48.65326" lon="7.20563">
        <ele>377.4</ele>
        <time>2020-08-27T13:01:23Z</time>
      </trkpt>
      <trkpt lat="48.6533" lon="7.20569">
        <ele>380.9</ele>
        <time>2020-08-27T13:01:30Z</time>
      </trkpt>
      <trkpt lat="48.6533" lon="7.20576">
        <ele>381.3</ele>
        <time>2020-08-27T13:01:48Z</time>
      </trkpt>
      <trkpt lat="48.65331" lon="7.20583">
        <ele>380.7</ele>
        <time>2020-08-27T13:01:52Z</time>
      </trkpt>
      <trkpt lat="48.65333" lon="7.2059">
        <ele>380.7</ele>
        <time>2020-08-27T13:02:00Z</time>
      </trkpt>
      <trkpt lat="48.65335" lon="7.20596">
        <ele>380.4</ele>
        <time>2020-08-27T13:02:08Z</time>
      </trkpt>
      <trkpt lat="48.65338" lon="7.20603">
        <ele>380.2</ele>
        <time>2020-08-27T13:02:11Z</time>
      </trkpt>
      <trkpt lat="48.65342" lon="7.20609">
        <ele>380.9</ele>
        <time>2020-08-27T13:02:14Z</time>
      </trkpt>
      <trkpt lat="48.65346" lon="7.20616">
        <ele>381.6</ele>
        <time>2020-08-27T13:02:17Z</time>
      </trkpt>
      <trkpt lat="48.65349" lon="7.20623">
        <ele>383.3</ele>
        <time>2020-08-27T13:02:20Z</time>
      </trkpt>
      <trkpt lat="48.65351" lon="7.20631">
        <ele>383.2</ele>
        <time>2020-08-27T13:02:23Z</time>
      </trkpt>
      <trkpt lat="48.65354" lon="7.20637">
        <ele>383.5</ele>
        <time>2020-08-27T13:02:25Z</time>
      </trkpt>
      <trkpt lat="48.65356" lon="7.20643">
        <ele>383.7</ele>
        <time>2020-08-27T13:02:27Z</time>
      </trkpt>
      <trkpt lat="48.65357" lon="7.20652">
        <ele>383.4</ele>
        <time>2020-08-27T13:02:30Z</time>
      </trkpt>
      <trkpt lat="48.65358" lon="7.20661">
        <ele>383.3</ele>
        <time>2020-08-27T13:02:33Z</time>
      </trkpt>
      <trkpt lat="48.6536" lon="7.20671">
        <ele>384</ele>
        <time>2020-08-27T13:02:36Z</time>
      </trkpt>
      <trkpt lat="48.65362" lon="7.20677">
        <ele>384.4</ele>
        <time>2020-08-27T13:02:38Z</time>
      </trkpt>
      <trkpt lat="48.65362" lon="7.20687">
        <ele>385.3</ele>
        <time>2020-08-27T13:02:41Z</time>
      </trkpt>
      <trkpt lat="48.65363" lon="7.20695">
        <ele>386.3</ele>
        <time>2020-08-27T13:02:44Z</time>
      </trkpt>
      <trkpt lat="48.65364" lon="7.20703">
        <ele>387.1</ele>
        <time>2020-08-27T13:02:47Z</time>
      </trkpt>
      <trkpt lat="48.65364" lon="7.2071">
        <ele>387.9</ele>
        <time>2020-08-27T13:02:50Z</time>
      </trkpt>
      <trkpt lat="48.65363" lon="7.20716">
        <ele>388.4</ele>
        <time>2020-08-27T13:02:53Z</time>
      </trkpt>
      <trkpt lat="48.65362" lon="7.20723">
        <ele>387.9</ele>
        <time>2020-08-27T13:02:55Z</time>
      </trkpt>
      <trkpt lat="48.65362" lon="7.20731">
        <ele>388.2</ele>
        <time>2020-08-27T13:02:57Z</time>
      </trkpt>
      <trkpt lat="48.65361" lon="7.20738">
        <ele>388.4</ele>
        <time>2020-08-27T13:03:00Z</time>
      </trkpt>
      <trkpt lat="48.6536" lon="7.20748">
        <ele>389.9</ele>
        <time>2020-08-27T13:03:02Z</time>
      </trkpt>
      <trkpt lat="48.6536" lon="7.20758">
        <ele>390.4</ele>
        <time>2020-08-27T13:03:05Z</time>
      </trkpt>
      <trkpt lat="48.65358" lon="7.20764">
        <ele>390.6</ele>
        <time>2020-08-27T13:03:07Z</time>
      </trkpt>
      <trkpt lat="48.65357" lon="7.20772">
        <ele>390.8</ele>
        <time>2020-08-27T13:03:10Z</time>
      </trkpt>
      <trkpt lat="48.65356" lon="7.20781">
        <ele>390.8</ele>
        <time>2020-08-27T13:03:13Z</time>
      </trkpt>
      <trkpt lat="48.65354" lon="7.20791">
        <ele>390.8</ele>
        <time>2020-08-27T13:03:16Z</time>
      </trkpt>
      <trkpt lat="48.6535" lon="7.20799">
        <ele>391</ele>
        <time>2020-08-27T13:03:18Z</time>
      </trkpt>
      <trkpt lat="48.65347" lon="7.20806">
        <ele>391.1</ele>
        <time>2020-08-27T13:03:20Z</time>
      </trkpt>
      <trkpt lat="48.65343" lon="7.20814">
        <ele>390.7</ele>
        <time>2020-08-27T13:03:22Z</time>
      </trkpt>
      <trkpt lat="48.6534" lon="7.20822">
        <ele>389.6</ele>
        <time>2020-08-27T13:03:24Z</time>
      </trkpt>
      <trkpt lat="48.65336" lon="7.2083">
        <ele>389.4</ele>
        <time>2020-08-27T13:03:26Z</time>
      </trkpt>
      <trkpt lat="48.65333" lon="7.20838">
        <ele>388.7</ele>
        <time>2020-08-27T13:03:29Z</time>
      </trkpt>
      <trkpt lat="48.6533" lon="7.20845">
        <ele>389.1</ele>
        <time>2020-08-27T13:03:30Z</time>
      </trkpt>
      <trkpt lat="48.65327" lon="7.20853">
        <ele>390.2</ele>
        <time>2020-08-27T13:03:32Z</time>
      </trkpt>
      <trkpt lat="48.65324" lon="7.20862">
        <ele>390.7</ele>
        <time>2020-08-27T13:03:34Z</time>
      </trkpt>
      <trkpt lat="48.6532" lon="7.20871">
        <ele>390.4</ele>
        <time>2020-08-27T13:03:36Z</time>
      </trkpt>
      <trkpt lat="48.65316" lon="7.20879">
        <ele>389.1</ele>
        <time>2020-08-27T13:03:38Z</time>
      </trkpt>
      <trkpt lat="48.65313" lon="7.20889">
        <ele>388.7</ele>
        <time>2020-08-27T13:03:40Z</time>
      </trkpt>
      <trkpt lat="48.6531" lon="7.20899">
        <ele>388.3</ele>
        <time>2020-08-27T13:03:42Z</time>
      </trkpt>
      <trkpt lat="48.65309" lon="7.2091">
        <ele>387.9</ele>
        <time>2020-08-27T13:03:45Z</time>
      </trkpt>
      <trkpt lat="48.65308" lon="7.20923">
        <ele>387.3</ele>
        <time>2020-08-27T13:03:47Z</time>
      </trkpt>
      <trkpt lat="48.65307" lon="7.20935">
        <ele>386.5</ele>
        <time>2020-08-27T13:03:48Z</time>
      </trkpt>
      <trkpt lat="48.65306" lon="7.20948">
        <ele>384.7</ele>
        <time>2020-08-27T13:03:50Z</time>
      </trkpt>
      <trkpt lat="48.65304" lon="7.2096">
        <ele>383.7</ele>
        <time>2020-08-27T13:03:52Z</time>
      </trkpt>
      <trkpt lat="48.65302" lon="7.20971">
        <ele>383.1</ele>
        <time>2020-08-27T13:03:54Z</time>
      </trkpt>
      <trkpt lat="48.653" lon="7.20979">
        <ele>382.1</ele>
        <time>2020-08-27T13:03:56Z</time>
      </trkpt>
      <trkpt lat="48.65298" lon="7.20986">
        <ele>381.7</ele>
        <time>2020-08-27T13:03:59Z</time>
      </trkpt>
      <trkpt lat="48.65299" lon="7.20978">
        <ele>382.2</ele>
        <time>2020-08-27T13:04:16Z</time>
      </trkpt>
      <trkpt lat="48.65299" lon="7.20971">
        <ele>382.5</ele>
        <time>2020-08-27T13:04:19Z</time>
      </trkpt>
      <trkpt lat="48.65294" lon="7.20968">
        <ele>383.7</ele>
        <time>2020-08-27T13:04:25Z</time>
      </trkpt>
      <trkpt lat="48.6529" lon="7.20969">
        <ele>384.7</ele>
        <time>2020-08-27T13:04:32Z</time>
      </trkpt>
      <trkpt lat="48.65285" lon="7.20969">
        <ele>387.1</ele>
        <time>2020-08-27T13:04:41Z</time>
      </trkpt>
      <trkpt lat="48.65281" lon="7.20973">
        <ele>387</ele>
        <time>2020-08-27T13:04:47Z</time>
      </trkpt>
      <trkpt lat="48.65275" lon="7.20973">
        <ele>387.6</ele>
        <time>2020-08-27T13:04:50Z</time>
      </trkpt>
      <trkpt lat="48.65268" lon="7.20972">
        <ele>388.4</ele>
        <time>2020-08-27T13:04:53Z</time>
      </trkpt>
      <trkpt lat="48.65263" lon="7.20971">
        <ele>388.6</ele>
        <time>2020-08-27T13:04:55Z</time>
      </trkpt>
      <trkpt lat="48.65257" lon="7.20969">
        <ele>389.6</ele>
        <time>2020-08-27T13:04:58Z</time>
      </trkpt>
      <trkpt lat="48.65254" lon="7.20962">
        <ele>390.4</ele>
        <time>2020-08-27T13:05:02Z</time>
      </trkpt>
      <trkpt lat="48.65253" lon="7.20956">
        <ele>389.7</ele>
        <time>2020-08-27T13:05:04Z</time>
      </trkpt>
      <trkpt lat="48.6525" lon="7.20948">
        <ele>389.8</ele>
        <time>2020-08-27T13:05:06Z</time>
      </trkpt>
      <trkpt lat="48.65248" lon="7.2094">
        <ele>390.2</ele>
        <time>2020-08-27T13:05:08Z</time>
      </trkpt>
      <trkpt lat="48.65246" lon="7.20932">
        <ele>390.3</ele>
        <time>2020-08-27T13:05:10Z</time>
      </trkpt>
      <trkpt lat="48.65244" lon="7.20924">
        <ele>389.1</ele>
        <time>2020-08-27T13:05:13Z</time>
      </trkpt>
      <trkpt lat="48.65241" lon="7.20918">
        <ele>388.6</ele>
        <time>2020-08-27T13:05:14Z</time>
      </trkpt>
      <trkpt lat="48.65237" lon="7.20914">
        <ele>388.6</ele>
        <time>2020-08-27T13:05:16Z</time>
      </trkpt>
      <trkpt lat="48.65233" lon="7.20921">
        <ele>390.3</ele>
        <time>2020-08-27T13:05:21Z</time>
      </trkpt>
      <trkpt lat="48.65233" lon="7.20928">
        <ele>391.4</ele>
        <time>2020-08-27T13:05:24Z</time>
      </trkpt>
      <trkpt lat="48.65231" lon="7.20935">
        <ele>392.2</ele>
        <time>2020-08-27T13:05:26Z</time>
      </trkpt>
      <trkpt lat="48.65229" lon="7.20945">
        <ele>394.3</ele>
        <time>2020-08-27T13:05:28Z</time>
      </trkpt>
      <trkpt lat="48.65227" lon="7.20952">
        <ele>395.2</ele>
        <time>2020-08-27T13:05:30Z</time>
      </trkpt>
      <trkpt lat="48.65225" lon="7.20959">
        <ele>396.8</ele>
        <time>2020-08-27T13:05:32Z</time>
      </trkpt>
      <trkpt lat="48.65223" lon="7.20967">
        <ele>397.9</ele>
        <time>2020-08-27T13:05:34Z</time>
      </trkpt>
      <trkpt lat="48.65222" lon="7.20974">
        <ele>399.5</ele>
        <time>2020-08-27T13:05:36Z</time>
      </trkpt>
      <trkpt lat="48.6522" lon="7.20982">
        <ele>400.9</ele>
        <time>2020-08-27T13:05:38Z</time>
      </trkpt>
      <trkpt lat="48.6522" lon="7.2099">
        <ele>402.5</ele>
        <time>2020-08-27T13:05:40Z</time>
      </trkpt>
      <trkpt lat="48.65218" lon="7.20998">
        <ele>403.9</ele>
        <time>2020-08-27T13:05:42Z</time>
      </trkpt>
      <trkpt lat="48.65217" lon="7.21006">
        <ele>404.2</ele>
        <time>2020-08-27T13:05:44Z</time>
      </trkpt>
      <trkpt lat="48.65214" lon="7.21015">
        <ele>404.8</ele>
        <time>2020-08-27T13:05:46Z</time>
      </trkpt>
      <trkpt lat="48.65212" lon="7.21023">
        <ele>405.5</ele>
        <time>2020-08-27T13:05:48Z</time>
      </trkpt>
      <trkpt lat="48.6521" lon="7.21031">
        <ele>406.1</ele>
        <time>2020-08-27T13:05:50Z</time>
      </trkpt>
      <trkpt lat="48.65207" lon="7.2104">
        <ele>406.7</ele>
        <time>2020-08-27T13:05:52Z</time>
      </trkpt>
      <trkpt lat="48.65204" lon="7.21048">
        <ele>407.1</ele>
        <time>2020-08-27T13:05:54Z</time>
      </trkpt>
      <trkpt lat="48.65202" lon="7.21055">
        <ele>408.1</ele>
        <time>2020-08-27T13:05:56Z</time>
      </trkpt>
      <trkpt lat="48.65199" lon="7.21062">
        <ele>408.6</ele>
        <time>2020-08-27T13:05:58Z</time>
      </trkpt>
      <trkpt lat="48.65195" lon="7.21069">
        <ele>409.6</ele>
        <time>2020-08-27T13:06:00Z</time>
      </trkpt>
      <trkpt lat="48.65192" lon="7.21075">
        <ele>409.8</ele>
        <time>2020-08-27T13:06:02Z</time>
      </trkpt>
      <trkpt lat="48.65187" lon="7.21081">
        <ele>409.7</ele>
        <time>2020-08-27T13:06:04Z</time>
      </trkpt>
      <trkpt lat="48.65182" lon="7.21087">
        <ele>409.2</ele>
        <time>2020-08-27T13:06:06Z</time>
      </trkpt>
      <trkpt lat="48.65177" lon="7.21093">
        <ele>408.3</ele>
        <time>2020-08-27T13:06:08Z</time>
      </trkpt>
      <trkpt lat="48.65171" lon="7.21099">
        <ele>407.7</ele>
        <time>2020-08-27T13:06:10Z</time>
      </trkpt>
      <trkpt lat="48.65165" lon="7.21104">
        <ele>407.1</ele>
        <time>2020-08-27T13:06:12Z</time>
      </trkpt>
      <trkpt lat="48.6516" lon="7.2111">
        <ele>406.7</ele>
        <time>2020-08-27T13:06:14Z</time>
      </trkpt>
      <trkpt lat="48.65156" lon="7.21115">
        <ele>406.4</ele>
        <time>2020-08-27T13:06:16Z</time>
      </trkpt>
      <trkpt lat="48.65152" lon="7.2112">
        <ele>406.1</ele>
        <time>2020-08-27T13:06:18Z</time>
      </trkpt>
      <trkpt lat="48.65147" lon="7.21124">
        <ele>405.8</ele>
        <time>2020-08-27T13:06:20Z</time>
      </trkpt>
      <trkpt lat="48.65141" lon="7.21127">
        <ele>405.2</ele>
        <time>2020-08-27T13:06:22Z</time>
      </trkpt>
      <trkpt lat="48.65136" lon="7.21131">
        <ele>404.5</ele>
        <time>2020-08-27T13:06:24Z</time>
      </trkpt>
      <trkpt lat="48.65131" lon="7.21135">
        <ele>404.2</ele>
        <time>2020-08-27T13:06:26Z</time>
      </trkpt>
      <trkpt lat="48.65126" lon="7.2114">
        <ele>404.2</ele>
        <time>2020-08-27T13:06:28Z</time>
      </trkpt>
      <trkpt lat="48.65121" lon="7.21144">
        <ele>404</ele>
        <time>2020-08-27T13:06:30Z</time>
      </trkpt>
      <trkpt lat="48.65115" lon="7.21148">
        <ele>403.9</ele>
        <time>2020-08-27T13:06:32Z</time>
      </trkpt>
      <trkpt lat="48.6511" lon="7.21151">
        <ele>403.6</ele>
        <time>2020-08-27T13:06:34Z</time>
      </trkpt>
      <trkpt lat="48.65104" lon="7.21155">
        <ele>404.1</ele>
        <time>2020-08-27T13:06:36Z</time>
      </trkpt>
      <trkpt lat="48.65099" lon="7.21159">
        <ele>403.9</ele>
        <time>2020-08-27T13:06:38Z</time>
      </trkpt>
      <trkpt lat="48.65093" lon="7.21162">
        <ele>403.6</ele>
        <time>2020-08-27T13:06:40Z</time>
      </trkpt>
      <trkpt lat="48.65088" lon="7.21165">
        <ele>403.7</ele>
        <time>2020-08-27T13:06:42Z</time>
      </trkpt>
      <trkpt lat="48.65083" lon="7.21167">
        <ele>404.1</ele>
        <time>2020-08-27T13:06:44Z</time>
      </trkpt>
      <trkpt lat="48.65078" lon="7.21169">
        <ele>404.4</ele>
        <time>2020-08-27T13:06:46Z</time>
      </trkpt>
      <trkpt lat="48.65073" lon="7.21171">
        <ele>404.7</ele>
        <time>2020-08-27T13:06:48Z</time>
      </trkpt>
      <trkpt lat="48.65067" lon="7.21173">
        <ele>405.2</ele>
        <time>2020-08-27T13:06:50Z</time>
      </trkpt>
      <trkpt lat="48.65063" lon="7.21176">
        <ele>405.6</ele>
        <time>2020-08-27T13:06:52Z</time>
      </trkpt>
      <trkpt lat="48.65058" lon="7.2118">
        <ele>406.5</ele>
        <time>2020-08-27T13:06:54Z</time>
      </trkpt>
      <trkpt lat="48.65054" lon="7.21185">
        <ele>407.9</ele>
        <time>2020-08-27T13:06:57Z</time>
      </trkpt>
      <trkpt lat="48.65052" lon="7.21191">
        <ele>410.1</ele>
        <time>2020-08-27T13:06:59Z</time>
      </trkpt>
      <trkpt lat="48.65051" lon="7.21198">
        <ele>412.8</ele>
        <time>2020-08-27T13:07:10Z</time>
      </trkpt>
      <trkpt lat="48.65054" lon="7.21191">
        <ele>416.2</ele>
        <time>2020-08-27T13:07:19Z</time>
      </trkpt>
      <trkpt lat="48.65058" lon="7.21187">
        <ele>419.9</ele>
        <time>2020-08-27T13:07:27Z</time>
      </trkpt>
      <trkpt lat="48.65063" lon="7.21183">
        <ele>421.1</ele>
        <time>2020-08-27T13:07:33Z</time>
      </trkpt>
      <trkpt lat="48.65067" lon="7.21181">
        <ele>420.4</ele>
        <time>2020-08-27T13:07:38Z</time>
      </trkpt>
      <trkpt lat="48.65062" lon="7.21184">
        <ele>418.2</ele>
        <time>2020-08-27T13:07:48Z</time>
      </trkpt>
      <trkpt lat="48.65058" lon="7.21188">
        <ele>418.1</ele>
        <time>2020-08-27T13:07:52Z</time>
      </trkpt>
      <trkpt lat="48.65057" lon="7.21195">
        <ele>417.7</ele>
        <time>2020-08-27T13:07:59Z</time>
      </trkpt>
      <trkpt lat="48.65061" lon="7.21199">
        <ele>415.6</ele>
        <time>2020-08-27T13:08:11Z</time>
      </trkpt>
      <trkpt lat="48.65061" lon="7.21207">
        <ele>413.8</ele>
        <time>2020-08-27T13:08:18Z</time>
      </trkpt>
      <trkpt lat="48.6506" lon="7.21214">
        <ele>412.4</ele>
        <time>2020-08-27T13:08:23Z</time>
      </trkpt>
      <trkpt lat="48.6506" lon="7.21222">
        <ele>412.5</ele>
        <time>2020-08-27T13:08:31Z</time>
      </trkpt>
      <trkpt lat="48.6506" lon="7.2123">
        <ele>413</ele>
        <time>2020-08-27T13:08:38Z</time>
      </trkpt>
      <trkpt lat="48.6506" lon="7.21237">
        <ele>411.3</ele>
        <time>2020-08-27T13:08:43Z</time>
      </trkpt>
      <trkpt lat="48.65059" lon="7.21244">
        <ele>410.6</ele>
        <time>2020-08-27T13:08:49Z</time>
      </trkpt>
      <trkpt lat="48.65059" lon="7.21251">
        <ele>409.3</ele>
        <time>2020-08-27T13:08:54Z</time>
      </trkpt>
      <trkpt lat="48.65056" lon="7.21258">
        <ele>408</ele>
        <time>2020-08-27T13:08:57Z</time>
      </trkpt>
      <trkpt lat="48.65053" lon="7.21263">
        <ele>406.8</ele>
        <time>2020-08-27T13:09:03Z</time>
      </trkpt>
      <trkpt lat="48.65052" lon="7.21271">
        <ele>407.3</ele>
        <time>2020-08-27T13:09:10Z</time>
      </trkpt>
      <trkpt lat="48.65052" lon="7.21279">
        <ele>403.8</ele>
        <time>2020-08-27T13:09:13Z</time>
      </trkpt>
      <trkpt lat="48.65051" lon="7.21289">
        <ele>404</ele>
        <time>2020-08-27T13:09:15Z</time>
      </trkpt>
      <trkpt lat="48.65051" lon="7.21296">
        <ele>404.4</ele>
        <time>2020-08-27T13:09:17Z</time>
      </trkpt>
      <trkpt lat="48.6505" lon="7.21306">
        <ele>406.2</ele>
        <time>2020-08-27T13:09:20Z</time>
      </trkpt>
      <trkpt lat="48.65049" lon="7.21316">
        <ele>401.5</ele>
        <time>2020-08-27T13:09:23Z</time>
      </trkpt>
      <trkpt lat="48.65048" lon="7.21325">
        <ele>402.9</ele>
        <time>2020-08-27T13:09:26Z</time>
      </trkpt>
      <trkpt lat="48.65047" lon="7.21335">
        <ele>406</ele>
        <time>2020-08-27T13:09:29Z</time>
      </trkpt>
      <trkpt lat="48.65047" lon="7.21342">
        <ele>407.7</ele>
        <time>2020-08-27T13:09:31Z</time>
      </trkpt>
      <trkpt lat="48.65046" lon="7.2135">
        <ele>410.3</ele>
        <time>2020-08-27T13:09:33Z</time>
      </trkpt>
      <trkpt lat="48.65046" lon="7.21357">
        <ele>412.5</ele>
        <time>2020-08-27T13:09:35Z</time>
      </trkpt>
      <trkpt lat="48.65043" lon="7.21367">
        <ele>414.3</ele>
        <time>2020-08-27T13:09:38Z</time>
      </trkpt>
      <trkpt lat="48.65041" lon="7.21374">
        <ele>414.7</ele>
        <time>2020-08-27T13:09:40Z</time>
      </trkpt>
      <trkpt lat="48.65039" lon="7.21383">
        <ele>415</ele>
        <time>2020-08-27T13:09:42Z</time>
      </trkpt>
      <trkpt lat="48.65037" lon="7.21391">
        <ele>414.3</ele>
        <time>2020-08-27T13:09:44Z</time>
      </trkpt>
      <trkpt lat="48.65035" lon="7.21398">
        <ele>414.3</ele>
        <time>2020-08-27T13:09:46Z</time>
      </trkpt>
      <trkpt lat="48.65035" lon="7.21406">
        <ele>414.5</ele>
        <time>2020-08-27T13:09:48Z</time>
      </trkpt>
      <trkpt lat="48.65034" lon="7.21413">
        <ele>415.3</ele>
        <time>2020-08-27T13:09:50Z</time>
      </trkpt>
      <trkpt lat="48.65033" lon="7.21422">
        <ele>415.7</ele>
        <time>2020-08-27T13:09:52Z</time>
      </trkpt>
      <trkpt lat="48.65033" lon="7.21431">
        <ele>416.6</ele>
        <time>2020-08-27T13:09:54Z</time>
      </trkpt>
      <trkpt lat="48.65033" lon="7.2144">
        <ele>417.5</ele>
        <time>2020-08-27T13:09:56Z</time>
      </trkpt>
      <trkpt lat="48.65033" lon="7.21449">
        <ele>418.4</ele>
        <time>2020-08-27T13:09:58Z</time>
      </trkpt>
      <trkpt lat="48.65033" lon="7.21457">
        <ele>418.8</ele>
        <time>2020-08-27T13:10:00Z</time>
      </trkpt>
      <trkpt lat="48.65032" lon="7.21464">
        <ele>419.8</ele>
        <time>2020-08-27T13:10:02Z</time>
      </trkpt>
      <trkpt lat="48.65031" lon="7.21471">
        <ele>420.3</ele>
        <time>2020-08-27T13:10:04Z</time>
      </trkpt>
      <trkpt lat="48.65029" lon="7.21478">
        <ele>420.8</ele>
        <time>2020-08-27T13:10:06Z</time>
      </trkpt>
      <trkpt lat="48.65027" lon="7.21484">
        <ele>420.6</ele>
        <time>2020-08-27T13:10:08Z</time>
      </trkpt>
      <trkpt lat="48.65024" lon="7.21491">
        <ele>420.1</ele>
        <time>2020-08-27T13:10:10Z</time>
      </trkpt>
      <trkpt lat="48.65021" lon="7.21498">
        <ele>420</ele>
        <time>2020-08-27T13:10:12Z</time>
      </trkpt>
      <trkpt lat="48.65018" lon="7.21504">
        <ele>420.2</ele>
        <time>2020-08-27T13:10:14Z</time>
      </trkpt>
      <trkpt lat="48.65012" lon="7.2151">
        <ele>419.3</ele>
        <time>2020-08-27T13:10:16Z</time>
      </trkpt>
      <trkpt lat="48.65007" lon="7.21516">
        <ele>418.9</ele>
        <time>2020-08-27T13:10:18Z</time>
      </trkpt>
      <trkpt lat="48.65002" lon="7.2152">
        <ele>418.5</ele>
        <time>2020-08-27T13:10:20Z</time>
      </trkpt>
      <trkpt lat="48.64997" lon="7.21524">
        <ele>418.4</ele>
        <time>2020-08-27T13:10:22Z</time>
      </trkpt>
      <trkpt lat="48.64993" lon="7.2153">
        <ele>417.6</ele>
        <time>2020-08-27T13:10:25Z</time>
      </trkpt>
      <trkpt lat="48.64988" lon="7.21535">
        <ele>417</ele>
        <time>2020-08-27T13:10:27Z</time>
      </trkpt>
      <trkpt lat="48.6498" lon="7.21544">
        <ele>416.1</ele>
        <time>2020-08-27T13:10:30Z</time>
      </trkpt>
      <trkpt lat="48.64972" lon="7.21553">
        <ele>415.3</ele>
        <time>2020-08-27T13:10:32Z</time>
      </trkpt>
      <trkpt lat="48.64967" lon="7.21559">
        <ele>414.6</ele>
        <time>2020-08-27T13:10:34Z</time>
      </trkpt>
      <trkpt lat="48.64962" lon="7.21565">
        <ele>414.4</ele>
        <time>2020-08-27T13:10:36Z</time>
      </trkpt>
      <trkpt lat="48.64958" lon="7.21571">
        <ele>413.7</ele>
        <time>2020-08-27T13:10:38Z</time>
      </trkpt>
      <trkpt lat="48.64954" lon="7.21576">
        <ele>413.5</ele>
        <time>2020-08-27T13:10:40Z</time>
      </trkpt>
      <trkpt lat="48.6495" lon="7.21581">
        <ele>413.2</ele>
        <time>2020-08-27T13:10:42Z</time>
      </trkpt>
      <trkpt lat="48.64946" lon="7.21585">
        <ele>413.1</ele>
        <time>2020-08-27T13:10:44Z</time>
      </trkpt>
      <trkpt lat="48.64942" lon="7.21587">
        <ele>412.9</ele>
        <time>2020-08-27T13:10:46Z</time>
      </trkpt>
      <trkpt lat="48.64937" lon="7.2159">
        <ele>413.2</ele>
        <time>2020-08-27T13:10:48Z</time>
      </trkpt>
      <trkpt lat="48.64931" lon="7.21592">
        <ele>413.2</ele>
        <time>2020-08-27T13:10:50Z</time>
      </trkpt>
      <trkpt lat="48.64927" lon="7.21592">
        <ele>412.8</ele>
        <time>2020-08-27T13:10:52Z</time>
      </trkpt>
      <trkpt lat="48.64921" lon="7.21591">
        <ele>412</ele>
        <time>2020-08-27T13:10:54Z</time>
      </trkpt>
      <trkpt lat="48.64915" lon="7.21589">
        <ele>411.3</ele>
        <time>2020-08-27T13:10:57Z</time>
      </trkpt>
      <trkpt lat="48.64907" lon="7.21587">
        <ele>411.4</ele>
        <time>2020-08-27T13:10:59Z</time>
      </trkpt>
      <trkpt lat="48.64902" lon="7.21585">
        <ele>411.2</ele>
        <time>2020-08-27T13:11:01Z</time>
      </trkpt>
      <trkpt lat="48.64896" lon="7.21583">
        <ele>410.7</ele>
        <time>2020-08-27T13:11:03Z</time>
      </trkpt>
      <trkpt lat="48.64889" lon="7.21582">
        <ele>410.6</ele>
        <time>2020-08-27T13:11:05Z</time>
      </trkpt>
      <trkpt lat="48.64883" lon="7.2158">
        <ele>410.6</ele>
        <time>2020-08-27T13:11:07Z</time>
      </trkpt>
      <trkpt lat="48.64875" lon="7.2158">
        <ele>410.9</ele>
        <time>2020-08-27T13:11:09Z</time>
      </trkpt>
      <trkpt lat="48.64868" lon="7.21579">
        <ele>410.7</ele>
        <time>2020-08-27T13:11:11Z</time>
      </trkpt>
      <trkpt lat="48.64862" lon="7.21579">
        <ele>410.8</ele>
        <time>2020-08-27T13:11:13Z</time>
      </trkpt>
      <trkpt lat="48.64857" lon="7.21579">
        <ele>410.1</ele>
        <time>2020-08-27T13:11:15Z</time>
      </trkpt>
      <trkpt lat="48.64851" lon="7.21584">
        <ele>409.9</ele>
        <time>2020-08-27T13:11:18Z</time>
      </trkpt>
      <trkpt lat="48.64849" lon="7.21591">
        <ele>410.3</ele>
        <time>2020-08-27T13:11:20Z</time>
      </trkpt>
      <trkpt lat="48.64849" lon="7.21598">
        <ele>411.8</ele>
        <time>2020-08-27T13:11:22Z</time>
      </trkpt>
      <trkpt lat="48.64849" lon="7.21606">
        <ele>413</ele>
        <time>2020-08-27T13:11:24Z</time>
      </trkpt>
      <trkpt lat="48.64848" lon="7.21614">
        <ele>414.7</ele>
        <time>2020-08-27T13:11:26Z</time>
      </trkpt>
      <trkpt lat="48.64849" lon="7.21623">
        <ele>415.3</ele>
        <time>2020-08-27T13:11:29Z</time>
      </trkpt>
      <trkpt lat="48.64849" lon="7.21631">
        <ele>416.6</ele>
        <time>2020-08-27T13:11:31Z</time>
      </trkpt>
      <trkpt lat="48.64851" lon="7.21637">
        <ele>417.4</ele>
        <time>2020-08-27T13:11:37Z</time>
      </trkpt>
      <trkpt lat="48.64852" lon="7.21646">
        <ele>418.7</ele>
        <time>2020-08-27T13:11:48Z</time>
      </trkpt>
      <trkpt lat="48.64854" lon="7.21653">
        <ele>419.2</ele>
        <time>2020-08-27T13:11:50Z</time>
      </trkpt>
      <trkpt lat="48.64855" lon="7.2166">
        <ele>419.5</ele>
        <time>2020-08-27T13:11:52Z</time>
      </trkpt>
      <trkpt lat="48.64855" lon="7.21667">
        <ele>420.2</ele>
        <time>2020-08-27T13:11:54Z</time>
      </trkpt>
      <trkpt lat="48.64855" lon="7.21674">
        <ele>420.5</ele>
        <time>2020-08-27T13:11:57Z</time>
      </trkpt>
      <trkpt lat="48.64856" lon="7.21686">
        <ele>419.8</ele>
        <time>2020-08-27T13:11:59Z</time>
      </trkpt>
      <trkpt lat="48.64856" lon="7.21695">
        <ele>419.6</ele>
        <time>2020-08-27T13:12:02Z</time>
      </trkpt>
      <trkpt lat="48.64856" lon="7.21707">
        <ele>419.9</ele>
        <time>2020-08-27T13:12:04Z</time>
      </trkpt>
      <trkpt lat="48.64856" lon="7.21715">
        <ele>420.2</ele>
        <time>2020-08-27T13:12:07Z</time>
      </trkpt>
      <trkpt lat="48.64857" lon="7.21725">
        <ele>420.2</ele>
        <time>2020-08-27T13:12:09Z</time>
      </trkpt>
      <trkpt lat="48.64857" lon="7.21734">
        <ele>418.3</ele>
        <time>2020-08-27T13:12:11Z</time>
      </trkpt>
      <trkpt lat="48.64855" lon="7.21749">
        <ele>418.3</ele>
        <time>2020-08-27T13:12:14Z</time>
      </trkpt>
      <trkpt lat="48.64852" lon="7.21765">
        <ele>418.8</ele>
        <time>2020-08-27T13:12:16Z</time>
      </trkpt>
      <trkpt lat="48.64851" lon="7.21775">
        <ele>418.7</ele>
        <time>2020-08-27T13:12:18Z</time>
      </trkpt>
      <trkpt lat="48.64851" lon="7.21787">
        <ele>417.6</ele>
        <time>2020-08-27T13:12:21Z</time>
      </trkpt>
      <trkpt lat="48.64851" lon="7.21803">
        <ele>416.7</ele>
        <time>2020-08-27T13:12:23Z</time>
      </trkpt>
      <trkpt lat="48.64849" lon="7.21814">
        <ele>415.9</ele>
        <time>2020-08-27T13:12:25Z</time>
      </trkpt>
      <trkpt lat="48.64847" lon="7.21824">
        <ele>415.6</ele>
        <time>2020-08-27T13:12:27Z</time>
      </trkpt>
      <trkpt lat="48.64846" lon="7.21831">
        <ele>415.6</ele>
        <time>2020-08-27T13:12:29Z</time>
      </trkpt>
      <trkpt lat="48.64844" lon="7.21839">
        <ele>415.7</ele>
        <time>2020-08-27T13:12:31Z</time>
      </trkpt>
      <trkpt lat="48.64842" lon="7.21846">
        <ele>415.7</ele>
        <time>2020-08-27T13:12:33Z</time>
      </trkpt>
      <trkpt lat="48.6484" lon="7.21852">
        <ele>415.5</ele>
        <time>2020-08-27T13:12:35Z</time>
      </trkpt>
      <trkpt lat="48.64835" lon="7.21859">
        <ele>414.7</ele>
        <time>2020-08-27T13:12:37Z</time>
      </trkpt>
      <trkpt lat="48.6483" lon="7.21864">
        <ele>414.7</ele>
        <time>2020-08-27T13:12:40Z</time>
      </trkpt>
      <trkpt lat="48.64821" lon="7.2187">
        <ele>414.1</ele>
        <time>2020-08-27T13:12:42Z</time>
      </trkpt>
      <trkpt lat="48.64813" lon="7.21875">
        <ele>414.3</ele>
        <time>2020-08-27T13:12:45Z</time>
      </trkpt>
      <trkpt lat="48.64807" lon="7.21883">
        <ele>414.1</ele>
        <time>2020-08-27T13:12:48Z</time>
      </trkpt>
      <trkpt lat="48.64803" lon="7.21889">
        <ele>414.4</ele>
        <time>2020-08-27T13:12:50Z</time>
      </trkpt>
      <trkpt lat="48.64799" lon="7.21894">
        <ele>414.4</ele>
        <time>2020-08-27T13:12:52Z</time>
      </trkpt>
      <trkpt lat="48.64793" lon="7.21899">
        <ele>414</ele>
        <time>2020-08-27T13:12:56Z</time>
      </trkpt>
      <trkpt lat="48.64785" lon="7.21903">
        <ele>413.3</ele>
        <time>2020-08-27T13:12:58Z</time>
      </trkpt>
      <trkpt lat="48.64779" lon="7.21907">
        <ele>412.6</ele>
        <time>2020-08-27T13:13:01Z</time>
      </trkpt>
      <trkpt lat="48.64771" lon="7.2191">
        <ele>411.8</ele>
        <time>2020-08-27T13:13:03Z</time>
      </trkpt>
      <trkpt lat="48.64765" lon="7.21915">
        <ele>411.7</ele>
        <time>2020-08-27T13:13:05Z</time>
      </trkpt>
      <trkpt lat="48.64759" lon="7.21919">
        <ele>411.7</ele>
        <time>2020-08-27T13:13:07Z</time>
      </trkpt>
      <trkpt lat="48.6475" lon="7.21928">
        <ele>412</ele>
        <time>2020-08-27T13:13:10Z</time>
      </trkpt>
      <trkpt lat="48.64741" lon="7.21935">
        <ele>411.9</ele>
        <time>2020-08-27T13:13:13Z</time>
      </trkpt>
      <trkpt lat="48.64736" lon="7.21939">
        <ele>412.5</ele>
        <time>2020-08-27T13:13:15Z</time>
      </trkpt>
      <trkpt lat="48.64731" lon="7.21943">
        <ele>413.2</ele>
        <time>2020-08-27T13:13:17Z</time>
      </trkpt>
      <trkpt lat="48.64725" lon="7.21947">
        <ele>414.4</ele>
        <time>2020-08-27T13:13:19Z</time>
      </trkpt>
      <trkpt lat="48.64718" lon="7.21952">
        <ele>412.6</ele>
        <time>2020-08-27T13:13:22Z</time>
      </trkpt>
      <trkpt lat="48.64712" lon="7.21956">
        <ele>412.7</ele>
        <time>2020-08-27T13:13:24Z</time>
      </trkpt>
      <trkpt lat="48.64707" lon="7.21958">
        <ele>413.4</ele>
        <time>2020-08-27T13:13:26Z</time>
      </trkpt>
      <trkpt lat="48.64699" lon="7.21961">
        <ele>414.9</ele>
        <time>2020-08-27T13:13:29Z</time>
      </trkpt>
      <trkpt lat="48.64693" lon="7.21963">
        <ele>416.7</ele>
        <time>2020-08-27T13:13:31Z</time>
      </trkpt>
      <trkpt lat="48.64682" lon="7.21968">
        <ele>418.6</ele>
        <time>2020-08-27T13:13:34Z</time>
      </trkpt>
      <trkpt lat="48.64676" lon="7.2197">
        <ele>419.8</ele>
        <time>2020-08-27T13:13:36Z</time>
      </trkpt>
      <trkpt lat="48.64669" lon="7.21971">
        <ele>420.6</ele>
        <time>2020-08-27T13:13:38Z</time>
      </trkpt>
      <trkpt lat="48.64662" lon="7.21973">
        <ele>420.8</ele>
        <time>2020-08-27T13:13:40Z</time>
      </trkpt>
      <trkpt lat="48.64655" lon="7.21975">
        <ele>420.7</ele>
        <time>2020-08-27T13:13:44Z</time>
      </trkpt>
      <trkpt lat="48.64644" lon="7.21983">
        <ele>421.1</ele>
        <time>2020-08-27T13:13:47Z</time>
      </trkpt>
      <trkpt lat="48.64639" lon="7.21987">
        <ele>420.6</ele>
        <time>2020-08-27T13:13:47Z</time>
      </trkpt>
      <trkpt lat="48.64632" lon="7.21992">
        <ele>420.2</ele>
        <time>2020-08-27T13:13:49Z</time>
      </trkpt>
      <trkpt lat="48.64625" lon="7.21997">
        <ele>420.2</ele>
        <time>2020-08-27T13:13:51Z</time>
      </trkpt>
      <trkpt lat="48.64618" lon="7.22001">
        <ele>420.3</ele>
        <time>2020-08-27T13:13:53Z</time>
      </trkpt>
      <trkpt lat="48.64613" lon="7.22006">
        <ele>420.5</ele>
        <time>2020-08-27T13:13:55Z</time>
      </trkpt>
      <trkpt lat="48.64609" lon="7.2201">
        <ele>420.9</ele>
        <time>2020-08-27T13:13:57Z</time>
      </trkpt>
      <trkpt lat="48.64605" lon="7.22017">
        <ele>421</ele>
        <time>2020-08-27T13:14:00Z</time>
      </trkpt>
      <trkpt lat="48.64603" lon="7.22023">
        <ele>423</ele>
        <time>2020-08-27T13:14:07Z</time>
      </trkpt>
      <trkpt lat="48.64599" lon="7.22028">
        <ele>436.5</ele>
        <time>2020-08-27T13:14:27Z</time>
      </trkpt>
      <trkpt lat="48.64595" lon="7.22033">
        <ele>431.6</ele>
        <time>2020-08-27T13:14:37Z</time>
      </trkpt>
      <trkpt lat="48.64592" lon="7.22037">
        <ele>430.2</ele>
        <time>2020-08-27T13:14:40Z</time>
      </trkpt>
      <trkpt lat="48.6459" lon="7.22045">
        <ele>429.3</ele>
        <time>2020-08-27T13:14:43Z</time>
      </trkpt>
      <trkpt lat="48.64588" lon="7.22052">
        <ele>429.4</ele>
        <time>2020-08-27T13:14:45Z</time>
      </trkpt>
      <trkpt lat="48.64586" lon="7.2206">
        <ele>429.2</ele>
        <time>2020-08-27T13:14:48Z</time>
      </trkpt>
      <trkpt lat="48.64585" lon="7.22068">
        <ele>427.8</ele>
        <time>2020-08-27T13:14:52Z</time>
      </trkpt>
      <trkpt lat="48.64585" lon="7.22076">
        <ele>427.3</ele>
        <time>2020-08-27T13:14:54Z</time>
      </trkpt>
      <trkpt lat="48.64586" lon="7.22085">
        <ele>426.3</ele>
        <time>2020-08-27T13:14:56Z</time>
      </trkpt>
      <trkpt lat="48.64589" lon="7.22092">
        <ele>425</ele>
        <time>2020-08-27T13:14:58Z</time>
      </trkpt>
      <trkpt lat="48.64594" lon="7.22096">
        <ele>424.1</ele>
        <time>2020-08-27T13:15:00Z</time>
      </trkpt>
      <trkpt lat="48.64599" lon="7.22099">
        <ele>423.6</ele>
        <time>2020-08-27T13:15:02Z</time>
      </trkpt>
      <trkpt lat="48.64604" lon="7.221">
        <ele>423.9</ele>
        <time>2020-08-27T13:15:05Z</time>
      </trkpt>
      <trkpt lat="48.64609" lon="7.22102">
        <ele>423.3</ele>
        <time>2020-08-27T13:15:09Z</time>
      </trkpt>
      <trkpt lat="48.64615" lon="7.22103">
        <ele>422.7</ele>
        <time>2020-08-27T13:15:13Z</time>
      </trkpt>
      <trkpt lat="48.6462" lon="7.22106">
        <ele>422.6</ele>
        <time>2020-08-27T13:15:15Z</time>
      </trkpt>
      <trkpt lat="48.64625" lon="7.22108">
        <ele>430.7</ele>
        <time>2020-08-27T13:15:18Z</time>
      </trkpt>
      <trkpt lat="48.64632" lon="7.22109">
        <ele>433.6</ele>
        <time>2020-08-27T13:15:20Z</time>
      </trkpt>
      <trkpt lat="48.64638" lon="7.22109">
        <ele>434.2</ele>
        <time>2020-08-27T13:15:23Z</time>
      </trkpt>
      <trkpt lat="48.64642" lon="7.22108">
        <ele>432.9</ele>
        <time>2020-08-27T13:15:26Z</time>
      </trkpt>
      <trkpt lat="48.64651" lon="7.2211">
        <ele>431.5</ele>
        <time>2020-08-27T13:15:29Z</time>
      </trkpt>
      <trkpt lat="48.64657" lon="7.22112">
        <ele>430.3</ele>
        <time>2020-08-27T13:15:31Z</time>
      </trkpt>
      <trkpt lat="48.64661" lon="7.22115">
        <ele>429.3</ele>
        <time>2020-08-27T13:15:34Z</time>
      </trkpt>
      <trkpt lat="48.64666" lon="7.22118">
        <ele>427.8</ele>
        <time>2020-08-27T13:15:36Z</time>
      </trkpt>
      <trkpt lat="48.64672" lon="7.2212">
        <ele>426.1</ele>
        <time>2020-08-27T13:15:40Z</time>
      </trkpt>
      <trkpt lat="48.64678" lon="7.22123">
        <ele>424</ele>
        <time>2020-08-27T13:15:45Z</time>
      </trkpt>
      <trkpt lat="48.64683" lon="7.22128">
        <ele>422.6</ele>
        <time>2020-08-27T13:15:48Z</time>
      </trkpt>
      <trkpt lat="48.64687" lon="7.22132">
        <ele>422</ele>
        <time>2020-08-27T13:15:50Z</time>
      </trkpt>
      <trkpt lat="48.64694" lon="7.22137">
        <ele>421.9</ele>
        <time>2020-08-27T13:15:52Z</time>
      </trkpt>
      <trkpt lat="48.64701" lon="7.22142">
        <ele>421.5</ele>
        <time>2020-08-27T13:15:54Z</time>
      </trkpt>
      <trkpt lat="48.64707" lon="7.22146">
        <ele>422.1</ele>
        <time>2020-08-27T13:15:56Z</time>
      </trkpt>
      <trkpt lat="48.64712" lon="7.22149">
        <ele>421.6</ele>
        <time>2020-08-27T13:15:58Z</time>
      </trkpt>
      <trkpt lat="48.64717" lon="7.22153">
        <ele>421.3</ele>
        <time>2020-08-27T13:16:00Z</time>
      </trkpt>
      <trkpt lat="48.64724" lon="7.22157">
        <ele>420.7</ele>
        <time>2020-08-27T13:16:02Z</time>
      </trkpt>
      <trkpt lat="48.64732" lon="7.22161">
        <ele>421.4</ele>
        <time>2020-08-27T13:16:04Z</time>
      </trkpt>
      <trkpt lat="48.64741" lon="7.22166">
        <ele>422.3</ele>
        <time>2020-08-27T13:16:06Z</time>
      </trkpt>
      <trkpt lat="48.6475" lon="7.22172">
        <ele>423.5</ele>
        <time>2020-08-27T13:16:08Z</time>
      </trkpt>
      <trkpt lat="48.64758" lon="7.22179">
        <ele>423.6</ele>
        <time>2020-08-27T13:16:11Z</time>
      </trkpt>
      <trkpt lat="48.6477" lon="7.2219">
        <ele>424.5</ele>
        <time>2020-08-27T13:16:13Z</time>
      </trkpt>
      <trkpt lat="48.64783" lon="7.22205">
        <ele>426</ele>
        <time>2020-08-27T13:16:15Z</time>
      </trkpt>
      <trkpt lat="48.64789" lon="7.22212">
        <ele>426.9</ele>
        <time>2020-08-27T13:16:17Z</time>
      </trkpt>
      <trkpt lat="48.64796" lon="7.22221">
        <ele>428.1</ele>
        <time>2020-08-27T13:16:19Z</time>
      </trkpt>
      <trkpt lat="48.64803" lon="7.2223">
        <ele>428.3</ele>
        <time>2020-08-27T13:16:22Z</time>
      </trkpt>
      <trkpt lat="48.6481" lon="7.22241">
        <ele>430</ele>
        <time>2020-08-27T13:16:24Z</time>
      </trkpt>
      <trkpt lat="48.64814" lon="7.22247">
        <ele>431</ele>
        <time>2020-08-27T13:16:26Z</time>
      </trkpt>
      <trkpt lat="48.64817" lon="7.22255">
        <ele>439.5</ele>
        <time>2020-08-27T13:16:29Z</time>
      </trkpt>
      <trkpt lat="48.6482" lon="7.22265">
        <ele>439.6</ele>
        <time>2020-08-27T13:16:32Z</time>
      </trkpt>
      <trkpt lat="48.64822" lon="7.22274">
        <ele>439.2</ele>
        <time>2020-08-27T13:16:34Z</time>
      </trkpt>
      <trkpt lat="48.64826" lon="7.22283">
        <ele>438.5</ele>
        <time>2020-08-27T13:16:36Z</time>
      </trkpt>
      <trkpt lat="48.6483" lon="7.22293">
        <ele>438</ele>
        <time>2020-08-27T13:16:38Z</time>
      </trkpt>
      <trkpt lat="48.64836" lon="7.22305">
        <ele>443.6</ele>
        <time>2020-08-27T13:16:42Z</time>
      </trkpt>
      <trkpt lat="48.64841" lon="7.22318">
        <ele>441.3</ele>
        <time>2020-08-27T13:16:45Z</time>
      </trkpt>
      <trkpt lat="48.64843" lon="7.22327">
        <ele>440.6</ele>
        <time>2020-08-27T13:16:47Z</time>
      </trkpt>
      <trkpt lat="48.64846" lon="7.22338">
        <ele>440.2</ele>
        <time>2020-08-27T13:16:49Z</time>
      </trkpt>
      <trkpt lat="48.64849" lon="7.22349">
        <ele>439.5</ele>
        <time>2020-08-27T13:16:51Z</time>
      </trkpt>
      <trkpt lat="48.64851" lon="7.22358">
        <ele>438.6</ele>
        <time>2020-08-27T13:16:53Z</time>
      </trkpt>
      <trkpt lat="48.64854" lon="7.22368">
        <ele>437</ele>
        <time>2020-08-27T13:16:55Z</time>
      </trkpt>
      <trkpt lat="48.64858" lon="7.22382">
        <ele>437.1</ele>
        <time>2020-08-27T13:16:58Z</time>
      </trkpt>
      <trkpt lat="48.6486" lon="7.22393">
        <ele>438.8</ele>
        <time>2020-08-27T13:17:01Z</time>
      </trkpt>
      <trkpt lat="48.64861" lon="7.22401">
        <ele>439.7</ele>
        <time>2020-08-27T13:17:03Z</time>
      </trkpt>
      <trkpt lat="48.64862" lon="7.22412">
        <ele>440.7</ele>
        <time>2020-08-27T13:17:05Z</time>
      </trkpt>
      <trkpt lat="48.64864" lon="7.22422">
        <ele>441.8</ele>
        <time>2020-08-27T13:17:07Z</time>
      </trkpt>
      <trkpt lat="48.64864" lon="7.2243">
        <ele>442.6</ele>
        <time>2020-08-27T13:17:09Z</time>
      </trkpt>
      <trkpt lat="48.64864" lon="7.22438">
        <ele>435</ele>
        <time>2020-08-27T13:17:16Z</time>
      </trkpt>
      <trkpt lat="48.64866" lon="7.22446">
        <ele>437.2</ele>
        <time>2020-08-27T13:17:19Z</time>
      </trkpt>
      <trkpt lat="48.64867" lon="7.22455">
        <ele>438.3</ele>
        <time>2020-08-27T13:17:21Z</time>
      </trkpt>
      <trkpt lat="48.64869" lon="7.22465">
        <ele>440.4</ele>
        <time>2020-08-27T13:17:23Z</time>
      </trkpt>
      <trkpt lat="48.64871" lon="7.22477">
        <ele>441.6</ele>
        <time>2020-08-27T13:17:25Z</time>
      </trkpt>
      <trkpt lat="48.64872" lon="7.22488">
        <ele>443.1</ele>
        <time>2020-08-27T13:17:27Z</time>
      </trkpt>
      <trkpt lat="48.64874" lon="7.22499">
        <ele>443.3</ele>
        <time>2020-08-27T13:17:29Z</time>
      </trkpt>
      <trkpt lat="48.64875" lon="7.22509">
        <ele>443.7</ele>
        <time>2020-08-27T13:17:31Z</time>
      </trkpt>
      <trkpt lat="48.64878" lon="7.22518">
        <ele>444.2</ele>
        <time>2020-08-27T13:17:33Z</time>
      </trkpt>
      <trkpt lat="48.64881" lon="7.22527">
        <ele>444.9</ele>
        <time>2020-08-27T13:17:35Z</time>
      </trkpt>
      <trkpt lat="48.64884" lon="7.22536">
        <ele>444.9</ele>
        <time>2020-08-27T13:17:37Z</time>
      </trkpt>
      <trkpt lat="48.64887" lon="7.22542">
        <ele>445.5</ele>
        <time>2020-08-27T13:17:39Z</time>
      </trkpt>
      <trkpt lat="48.64891" lon="7.22549">
        <ele>446.4</ele>
        <time>2020-08-27T13:17:41Z</time>
      </trkpt>
      <trkpt lat="48.64895" lon="7.22556">
        <ele>447.3</ele>
        <time>2020-08-27T13:17:43Z</time>
      </trkpt>
      <trkpt lat="48.64898" lon="7.22562">
        <ele>448.2</ele>
        <time>2020-08-27T13:17:45Z</time>
      </trkpt>
      <trkpt lat="48.64902" lon="7.2257">
        <ele>447.2</ele>
        <time>2020-08-27T13:17:47Z</time>
      </trkpt>
      <trkpt lat="48.64907" lon="7.22578">
        <ele>447.6</ele>
        <time>2020-08-27T13:17:49Z</time>
      </trkpt>
      <trkpt lat="48.64912" lon="7.22586">
        <ele>447.6</ele>
        <time>2020-08-27T13:17:51Z</time>
      </trkpt>
      <trkpt lat="48.64917" lon="7.22593">
        <ele>447.5</ele>
        <time>2020-08-27T13:17:53Z</time>
      </trkpt>
      <trkpt lat="48.64922" lon="7.22601">
        <ele>447.5</ele>
        <time>2020-08-27T13:17:55Z</time>
      </trkpt>
      <trkpt lat="48.64931" lon="7.2261">
        <ele>447.1</ele>
        <time>2020-08-27T13:17:57Z</time>
      </trkpt>
      <trkpt lat="48.64939" lon="7.22618">
        <ele>446.6</ele>
        <time>2020-08-27T13:17:59Z</time>
      </trkpt>
      <trkpt lat="48.64946" lon="7.22629">
        <ele>446</ele>
        <time>2020-08-27T13:18:01Z</time>
      </trkpt>
      <trkpt lat="48.64953" lon="7.22639">
        <ele>450.7</ele>
        <time>2020-08-27T13:18:03Z</time>
      </trkpt>
      <trkpt lat="48.64961" lon="7.22652">
        <ele>450.9</ele>
        <time>2020-08-27T13:18:05Z</time>
      </trkpt>
      <trkpt lat="48.64967" lon="7.22662">
        <ele>451.1</ele>
        <time>2020-08-27T13:18:07Z</time>
      </trkpt>
      <trkpt lat="48.64973" lon="7.22673">
        <ele>450.2</ele>
        <time>2020-08-27T13:18:09Z</time>
      </trkpt>
      <trkpt lat="48.64976" lon="7.22685">
        <ele>449.6</ele>
        <time>2020-08-27T13:18:11Z</time>
      </trkpt>
      <trkpt lat="48.64978" lon="7.22692">
        <ele>449.5</ele>
        <time>2020-08-27T13:18:13Z</time>
      </trkpt>
      <trkpt lat="48.64982" lon="7.22696">
        <ele>453.5</ele>
        <time>2020-08-27T13:18:31Z</time>
      </trkpt>
      <trkpt lat="48.64984" lon="7.22704">
        <ele>455</ele>
        <time>2020-08-27T13:18:37Z</time>
      </trkpt>
      <trkpt lat="48.64985" lon="7.22711">
        <ele>454.1</ele>
        <time>2020-08-27T13:18:40Z</time>
      </trkpt>
      <trkpt lat="48.64986" lon="7.22722">
        <ele>455.5</ele>
        <time>2020-08-27T13:18:43Z</time>
      </trkpt>
      <trkpt lat="48.64987" lon="7.22731">
        <ele>455.7</ele>
        <time>2020-08-27T13:18:45Z</time>
      </trkpt>
      <trkpt lat="48.64987" lon="7.2274">
        <ele>456.7</ele>
        <time>2020-08-27T13:18:47Z</time>
      </trkpt>
      <trkpt lat="48.64987" lon="7.22751">
        <ele>455.7</ele>
        <time>2020-08-27T13:18:49Z</time>
      </trkpt>
      <trkpt lat="48.64987" lon="7.22764">
        <ele>454.8</ele>
        <time>2020-08-27T13:18:51Z</time>
      </trkpt>
      <trkpt lat="48.64986" lon="7.22779">
        <ele>454.4</ele>
        <time>2020-08-27T13:18:53Z</time>
      </trkpt>
      <trkpt lat="48.64985" lon="7.22794">
        <ele>453.9</ele>
        <time>2020-08-27T13:18:55Z</time>
      </trkpt>
      <trkpt lat="48.64985" lon="7.22809">
        <ele>452.4</ele>
        <time>2020-08-27T13:18:57Z</time>
      </trkpt>
      <trkpt lat="48.64981" lon="7.22822">
        <ele>451.4</ele>
        <time>2020-08-27T13:18:59Z</time>
      </trkpt>
      <trkpt lat="48.64977" lon="7.22837">
        <ele>450</ele>
        <time>2020-08-27T13:19:01Z</time>
      </trkpt>
      <trkpt lat="48.64973" lon="7.22851">
        <ele>449.5</ele>
        <time>2020-08-27T13:19:03Z</time>
      </trkpt>
      <trkpt lat="48.64969" lon="7.22865">
        <ele>448.4</ele>
        <time>2020-08-27T13:19:05Z</time>
      </trkpt>
      <trkpt lat="48.64965" lon="7.22878">
        <ele>447.7</ele>
        <time>2020-08-27T13:19:07Z</time>
      </trkpt>
      <trkpt lat="48.64961" lon="7.2289">
        <ele>446.6</ele>
        <time>2020-08-27T13:19:09Z</time>
      </trkpt>
      <trkpt lat="48.64956" lon="7.22904">
        <ele>445.6</ele>
        <time>2020-08-27T13:19:11Z</time>
      </trkpt>
      <trkpt lat="48.64951" lon="7.22918">
        <ele>444.8</ele>
        <time>2020-08-27T13:19:13Z</time>
      </trkpt>
      <trkpt lat="48.64946" lon="7.2293">
        <ele>444.3</ele>
        <time>2020-08-27T13:19:15Z</time>
      </trkpt>
      <trkpt lat="48.64943" lon="7.22944">
        <ele>444</ele>
        <time>2020-08-27T13:19:17Z</time>
      </trkpt>
      <trkpt lat="48.64937" lon="7.22956">
        <ele>443.2</ele>
        <time>2020-08-27T13:19:19Z</time>
      </trkpt>
      <trkpt lat="48.64932" lon="7.22968">
        <ele>448.6</ele>
        <time>2020-08-27T13:19:21Z</time>
      </trkpt>
      <trkpt lat="48.64929" lon="7.22979">
        <ele>448.5</ele>
        <time>2020-08-27T13:19:23Z</time>
      </trkpt>
      <trkpt lat="48.64924" lon="7.22989">
        <ele>448.6</ele>
        <time>2020-08-27T13:19:25Z</time>
      </trkpt>
      <trkpt lat="48.6492" lon="7.23002">
        <ele>448.1</ele>
        <time>2020-08-27T13:19:27Z</time>
      </trkpt>
      <trkpt lat="48.64916" lon="7.23016">
        <ele>447.7</ele>
        <time>2020-08-27T13:19:29Z</time>
      </trkpt>
      <trkpt lat="48.64912" lon="7.23031">
        <ele>451.7</ele>
        <time>2020-08-27T13:19:31Z</time>
      </trkpt>
      <trkpt lat="48.64909" lon="7.23044">
        <ele>451.1</ele>
        <time>2020-08-27T13:19:33Z</time>
      </trkpt>
      <trkpt lat="48.64906" lon="7.23057">
        <ele>451.5</ele>
        <time>2020-08-27T13:19:35Z</time>
      </trkpt>
      <trkpt lat="48.64902" lon="7.2307">
        <ele>451.4</ele>
        <time>2020-08-27T13:19:37Z</time>
      </trkpt>
      <trkpt lat="48.64899" lon="7.23085">
        <ele>450.6</ele>
        <time>2020-08-27T13:19:39Z</time>
      </trkpt>
      <trkpt lat="48.64896" lon="7.23097">
        <ele>450.2</ele>
        <time>2020-08-27T13:19:41Z</time>
      </trkpt>
      <trkpt lat="48.64892" lon="7.23111">
        <ele>449.2</ele>
        <time>2020-08-27T13:19:43Z</time>
      </trkpt>
      <trkpt lat="48.64889" lon="7.23126">
        <ele>449</ele>
        <time>2020-08-27T13:19:45Z</time>
      </trkpt>
      <trkpt lat="48.64888" lon="7.23143">
        <ele>449.2</ele>
        <time>2020-08-27T13:19:47Z</time>
      </trkpt>
      <trkpt lat="48.64887" lon="7.23156">
        <ele>449.7</ele>
        <time>2020-08-27T13:19:49Z</time>
      </trkpt>
      <trkpt lat="48.64883" lon="7.23167">
        <ele>450.4</ele>
        <time>2020-08-27T13:19:51Z</time>
      </trkpt>
      <trkpt lat="48.64879" lon="7.23178">
        <ele>451.3</ele>
        <time>2020-08-27T13:19:53Z</time>
      </trkpt>
      <trkpt lat="48.64873" lon="7.23186">
        <ele>451.2</ele>
        <time>2020-08-27T13:19:55Z</time>
      </trkpt>
      <trkpt lat="48.64869" lon="7.23193">
        <ele>451.6</ele>
        <time>2020-08-27T13:19:57Z</time>
      </trkpt>
      <trkpt lat="48.64864" lon="7.23198">
        <ele>451.4</ele>
        <time>2020-08-27T13:19:59Z</time>
      </trkpt>
      <trkpt lat="48.64857" lon="7.23201">
        <ele>451.5</ele>
        <time>2020-08-27T13:20:01Z</time>
      </trkpt>
      <trkpt lat="48.6485" lon="7.23203">
        <ele>451.4</ele>
        <time>2020-08-27T13:20:03Z</time>
      </trkpt>
      <trkpt lat="48.64842" lon="7.23203">
        <ele>451.2</ele>
        <time>2020-08-27T13:20:05Z</time>
      </trkpt>
      <trkpt lat="48.64835" lon="7.23203">
        <ele>451</ele>
        <time>2020-08-27T13:20:07Z</time>
      </trkpt>
      <trkpt lat="48.64828" lon="7.23203">
        <ele>450.7</ele>
        <time>2020-08-27T13:20:09Z</time>
      </trkpt>
      <trkpt lat="48.64821" lon="7.23203">
        <ele>450.8</ele>
        <time>2020-08-27T13:20:11Z</time>
      </trkpt>
      <trkpt lat="48.64815" lon="7.23203">
        <ele>450.8</ele>
        <time>2020-08-27T13:20:13Z</time>
      </trkpt>
      <trkpt lat="48.64809" lon="7.23204">
        <ele>451.2</ele>
        <time>2020-08-27T13:20:15Z</time>
      </trkpt>
      <trkpt lat="48.64801" lon="7.23206">
        <ele>452.9</ele>
        <time>2020-08-27T13:20:17Z</time>
      </trkpt>
      <trkpt lat="48.64793" lon="7.2321">
        <ele>453</ele>
        <time>2020-08-27T13:20:19Z</time>
      </trkpt>
      <trkpt lat="48.64783" lon="7.23215">
        <ele>454.6</ele>
        <time>2020-08-27T13:20:21Z</time>
      </trkpt>
      <trkpt lat="48.64773" lon="7.2322">
        <ele>455.4</ele>
        <time>2020-08-27T13:20:23Z</time>
      </trkpt>
      <trkpt lat="48.64764" lon="7.23227">
        <ele>455.8</ele>
        <time>2020-08-27T13:20:25Z</time>
      </trkpt>
      <trkpt lat="48.64759" lon="7.23238">
        <ele>456.2</ele>
        <time>2020-08-27T13:20:27Z</time>
      </trkpt>
      <trkpt lat="48.64758" lon="7.23252">
        <ele>455.9</ele>
        <time>2020-08-27T13:20:29Z</time>
      </trkpt>
      <trkpt lat="48.64761" lon="7.23267">
        <ele>456.1</ele>
        <time>2020-08-27T13:20:31Z</time>
      </trkpt>
      <trkpt lat="48.64766" lon="7.23283">
        <ele>456.4</ele>
        <time>2020-08-27T13:20:33Z</time>
      </trkpt>
      <trkpt lat="48.64771" lon="7.23297">
        <ele>456.2</ele>
        <time>2020-08-27T13:20:35Z</time>
      </trkpt>
      <trkpt lat="48.64775" lon="7.23313">
        <ele>456.7</ele>
        <time>2020-08-27T13:20:37Z</time>
      </trkpt>
      <trkpt lat="48.64776" lon="7.23327">
        <ele>456.7</ele>
        <time>2020-08-27T13:20:39Z</time>
      </trkpt>
      <trkpt lat="48.64774" lon="7.23343">
        <ele>456.1</ele>
        <time>2020-08-27T13:20:41Z</time>
      </trkpt>
      <trkpt lat="48.6477" lon="7.23359">
        <ele>454.7</ele>
        <time>2020-08-27T13:20:43Z</time>
      </trkpt>
      <trkpt lat="48.64767" lon="7.23377">
        <ele>453.3</ele>
        <time>2020-08-27T13:20:45Z</time>
      </trkpt>
      <trkpt lat="48.64762" lon="7.23394">
        <ele>450.9</ele>
        <time>2020-08-27T13:20:47Z</time>
      </trkpt>
      <trkpt lat="48.64759" lon="7.23412">
        <ele>449.4</ele>
        <time>2020-08-27T13:20:49Z</time>
      </trkpt>
      <trkpt lat="48.64755" lon="7.23431">
        <ele>447.4</ele>
        <time>2020-08-27T13:20:51Z</time>
      </trkpt>
      <trkpt lat="48.6475" lon="7.2345">
        <ele>448.6</ele>
        <time>2020-08-27T13:20:53Z</time>
      </trkpt>
      <trkpt lat="48.64745" lon="7.2347">
        <ele>447.3</ele>
        <time>2020-08-27T13:20:55Z</time>
      </trkpt>
      <trkpt lat="48.6474" lon="7.23488">
        <ele>446.3</ele>
        <time>2020-08-27T13:20:57Z</time>
      </trkpt>
      <trkpt lat="48.64736" lon="7.23507">
        <ele>445.4</ele>
        <time>2020-08-27T13:20:59Z</time>
      </trkpt>
      <trkpt lat="48.64731" lon="7.23523">
        <ele>444.4</ele>
        <time>2020-08-27T13:21:01Z</time>
      </trkpt>
      <trkpt lat="48.64725" lon="7.23541">
        <ele>443.2</ele>
        <time>2020-08-27T13:21:03Z</time>
      </trkpt>
      <trkpt lat="48.64721" lon="7.23561">
        <ele>442.3</ele>
        <time>2020-08-27T13:21:05Z</time>
      </trkpt>
      <trkpt lat="48.64715" lon="7.23577">
        <ele>445</ele>
        <time>2020-08-27T13:21:07Z</time>
      </trkpt>
      <trkpt lat="48.64708" lon="7.23594">
        <ele>444.1</ele>
        <time>2020-08-27T13:21:09Z</time>
      </trkpt>
      <trkpt lat="48.647" lon="7.23611">
        <ele>444</ele>
        <time>2020-08-27T13:21:11Z</time>
      </trkpt>
      <trkpt lat="48.64694" lon="7.23629">
        <ele>443.4</ele>
        <time>2020-08-27T13:21:13Z</time>
      </trkpt>
      <trkpt lat="48.64691" lon="7.23647">
        <ele>442.7</ele>
        <time>2020-08-27T13:21:15Z</time>
      </trkpt>
      <trkpt lat="48.64693" lon="7.23659">
        <ele>442.4</ele>
        <time>2020-08-27T13:21:17Z</time>
      </trkpt>
      <trkpt lat="48.64697" lon="7.23664">
        <ele>442</ele>
        <time>2020-08-27T13:21:19Z</time>
      </trkpt>
      <trkpt lat="48.64701" lon="7.23665">
        <ele>442.1</ele>
        <time>2020-08-27T13:21:21Z</time>
      </trkpt>
      <trkpt lat="48.64706" lon="7.23663">
        <ele>442.1</ele>
        <time>2020-08-27T13:21:23Z</time>
      </trkpt>
      <trkpt lat="48.64713" lon="7.23661">
        <ele>442.7</ele>
        <time>2020-08-27T13:21:25Z</time>
      </trkpt>
      <trkpt lat="48.64722" lon="7.23658">
        <ele>442.8</ele>
        <time>2020-08-27T13:21:27Z</time>
      </trkpt>
      <trkpt lat="48.64731" lon="7.23654">
        <ele>443.1</ele>
        <time>2020-08-27T13:21:29Z</time>
      </trkpt>
      <trkpt lat="48.6474" lon="7.2365">
        <ele>443.6</ele>
        <time>2020-08-27T13:21:31Z</time>
      </trkpt>
      <trkpt lat="48.6475" lon="7.23646">
        <ele>444.3</ele>
        <time>2020-08-27T13:21:33Z</time>
      </trkpt>
      <trkpt lat="48.6476" lon="7.23643">
        <ele>444.2</ele>
        <time>2020-08-27T13:21:35Z</time>
      </trkpt>
      <trkpt lat="48.64769" lon="7.23637">
        <ele>444.4</ele>
        <time>2020-08-27T13:21:37Z</time>
      </trkpt>
      <trkpt lat="48.64777" lon="7.23631">
        <ele>444.5</ele>
        <time>2020-08-27T13:21:39Z</time>
      </trkpt>
      <trkpt lat="48.64785" lon="7.23622">
        <ele>445.7</ele>
        <time>2020-08-27T13:21:41Z</time>
      </trkpt>
      <trkpt lat="48.64792" lon="7.23613">
        <ele>446.1</ele>
        <time>2020-08-27T13:21:43Z</time>
      </trkpt>
      <trkpt lat="48.648" lon="7.23603">
        <ele>447</ele>
        <time>2020-08-27T13:21:45Z</time>
      </trkpt>
      <trkpt lat="48.64807" lon="7.23595">
        <ele>447.1</ele>
        <time>2020-08-27T13:21:47Z</time>
      </trkpt>
      <trkpt lat="48.64815" lon="7.23586">
        <ele>446.7</ele>
        <time>2020-08-27T13:21:49Z</time>
      </trkpt>
      <trkpt lat="48.64822" lon="7.23577">
        <ele>449.4</ele>
        <time>2020-08-27T13:21:51Z</time>
      </trkpt>
      <trkpt lat="48.64828" lon="7.23567">
        <ele>450.9</ele>
        <time>2020-08-27T13:21:53Z</time>
      </trkpt>
      <trkpt lat="48.64833" lon="7.23558">
        <ele>450.7</ele>
        <time>2020-08-27T13:21:55Z</time>
      </trkpt>
      <trkpt lat="48.64839" lon="7.23547">
        <ele>450.3</ele>
        <time>2020-08-27T13:21:57Z</time>
      </trkpt>
      <trkpt lat="48.64846" lon="7.23535">
        <ele>450.2</ele>
        <time>2020-08-27T13:21:59Z</time>
      </trkpt>
      <trkpt lat="48.64853" lon="7.23529">
        <ele>450.8</ele>
        <time>2020-08-27T13:22:01Z</time>
      </trkpt>
      <trkpt lat="48.6486" lon="7.23523">
        <ele>451.4</ele>
        <time>2020-08-27T13:22:03Z</time>
      </trkpt>
      <trkpt lat="48.64868" lon="7.23517">
        <ele>451.6</ele>
        <time>2020-08-27T13:22:05Z</time>
      </trkpt>
      <trkpt lat="48.64876" lon="7.2351">
        <ele>453.3</ele>
        <time>2020-08-27T13:22:07Z</time>
      </trkpt>
      <trkpt lat="48.64883" lon="7.23502">
        <ele>454.6</ele>
        <time>2020-08-27T13:22:09Z</time>
      </trkpt>
      <trkpt lat="48.64891" lon="7.23495">
        <ele>455</ele>
        <time>2020-08-27T13:22:11Z</time>
      </trkpt>
      <trkpt lat="48.649" lon="7.23488">
        <ele>456.5</ele>
        <time>2020-08-27T13:22:13Z</time>
      </trkpt>
      <trkpt lat="48.64909" lon="7.23483">
        <ele>457.2</ele>
        <time>2020-08-27T13:22:15Z</time>
      </trkpt>
      <trkpt lat="48.6492" lon="7.23479">
        <ele>458.1</ele>
        <time>2020-08-27T13:22:17Z</time>
      </trkpt>
      <trkpt lat="48.64933" lon="7.23477">
        <ele>458.7</ele>
        <time>2020-08-27T13:22:19Z</time>
      </trkpt>
      <trkpt lat="48.64948" lon="7.23473">
        <ele>458.6</ele>
        <time>2020-08-27T13:22:21Z</time>
      </trkpt>
      <trkpt lat="48.64963" lon="7.23466">
        <ele>458.5</ele>
        <time>2020-08-27T13:22:23Z</time>
      </trkpt>
      <trkpt lat="48.64978" lon="7.23455">
        <ele>458.2</ele>
        <time>2020-08-27T13:22:25Z</time>
      </trkpt>
      <trkpt lat="48.64992" lon="7.23442">
        <ele>458.3</ele>
        <time>2020-08-27T13:22:27Z</time>
      </trkpt>
      <trkpt lat="48.65007" lon="7.23431">
        <ele>457.8</ele>
        <time>2020-08-27T13:22:29Z</time>
      </trkpt>
      <trkpt lat="48.65021" lon="7.23424">
        <ele>457.1</ele>
        <time>2020-08-27T13:22:31Z</time>
      </trkpt>
      <trkpt lat="48.65035" lon="7.23423">
        <ele>456.5</ele>
        <time>2020-08-27T13:22:33Z</time>
      </trkpt>
      <trkpt lat="48.65049" lon="7.23425">
        <ele>456.2</ele>
        <time>2020-08-27T13:22:35Z</time>
      </trkpt>
      <trkpt lat="48.65064" lon="7.23431">
        <ele>455.3</ele>
        <time>2020-08-27T13:22:37Z</time>
      </trkpt>
      <trkpt lat="48.6508" lon="7.23441">
        <ele>455.1</ele>
        <time>2020-08-27T13:22:39Z</time>
      </trkpt>
      <trkpt lat="48.65095" lon="7.23452">
        <ele>455.1</ele>
        <time>2020-08-27T13:22:41Z</time>
      </trkpt>
      <trkpt lat="48.6511" lon="7.23465">
        <ele>455.2</ele>
        <time>2020-08-27T13:22:43Z</time>
      </trkpt>
      <trkpt lat="48.65123" lon="7.23477">
        <ele>455.4</ele>
        <time>2020-08-27T13:22:45Z</time>
      </trkpt>
      <trkpt lat="48.65138" lon="7.23488">
        <ele>455.7</ele>
        <time>2020-08-27T13:22:47Z</time>
      </trkpt>
      <trkpt lat="48.65154" lon="7.23498">
        <ele>455.9</ele>
        <time>2020-08-27T13:22:49Z</time>
      </trkpt>
      <trkpt lat="48.65167" lon="7.23504">
        <ele>456.3</ele>
        <time>2020-08-27T13:22:51Z</time>
      </trkpt>
      <trkpt lat="48.6518" lon="7.2351">
        <ele>456.3</ele>
        <time>2020-08-27T13:22:53Z</time>
      </trkpt>
      <trkpt lat="48.65193" lon="7.23515">
        <ele>456.6</ele>
        <time>2020-08-27T13:22:55Z</time>
      </trkpt>
      <trkpt lat="48.65212" lon="7.23523">
        <ele>457</ele>
        <time>2020-08-27T13:22:58Z</time>
      </trkpt>
      <trkpt lat="48.65224" lon="7.23528">
        <ele>457.4</ele>
        <time>2020-08-27T13:23:00Z</time>
      </trkpt>
      <trkpt lat="48.65235" lon="7.23534">
        <ele>457.2</ele>
        <time>2020-08-27T13:23:02Z</time>
      </trkpt>
      <trkpt lat="48.65246" lon="7.23541">
        <ele>457.6</ele>
        <time>2020-08-27T13:23:04Z</time>
      </trkpt>
      <trkpt lat="48.65257" lon="7.23549">
        <ele>458</ele>
        <time>2020-08-27T13:23:06Z</time>
      </trkpt>
      <trkpt lat="48.65274" lon="7.2356">
        <ele>459.2</ele>
        <time>2020-08-27T13:23:08Z</time>
      </trkpt>
      <trkpt lat="48.6529" lon="7.23573">
        <ele>461.2</ele>
        <time>2020-08-27T13:23:11Z</time>
      </trkpt>
      <trkpt lat="48.65296" lon="7.23576">
        <ele>461.4</ele>
        <time>2020-08-27T13:23:12Z</time>
      </trkpt>
      <trkpt lat="48.65304" lon="7.23582">
        <ele>462.9</ele>
        <time>2020-08-27T13:23:14Z</time>
      </trkpt>
      <trkpt lat="48.65311" lon="7.23587">
        <ele>463.3</ele>
        <time>2020-08-27T13:23:16Z</time>
      </trkpt>
      <trkpt lat="48.65318" lon="7.23584">
        <ele>463.9</ele>
        <time>2020-08-27T13:23:18Z</time>
      </trkpt>
      <trkpt lat="48.65326" lon="7.23574">
        <ele>463.9</ele>
        <time>2020-08-27T13:23:20Z</time>
      </trkpt>
      <trkpt lat="48.65335" lon="7.23564">
        <ele>463.8</ele>
        <time>2020-08-27T13:23:22Z</time>
      </trkpt>
      <trkpt lat="48.65345" lon="7.23554">
        <ele>463.3</ele>
        <time>2020-08-27T13:23:24Z</time>
      </trkpt>
      <trkpt lat="48.65353" lon="7.23551">
        <ele>463.4</ele>
        <time>2020-08-27T13:23:26Z</time>
      </trkpt>
      <trkpt lat="48.65359" lon="7.23558">
        <ele>463.2</ele>
        <time>2020-08-27T13:23:28Z</time>
      </trkpt>
      <trkpt lat="48.65364" lon="7.23565">
        <ele>463.7</ele>
        <time>2020-08-27T13:23:30Z</time>
      </trkpt>
    </trkseg>
  </trk>
</gpx>